Wetterdaten: Montag, 12.01.2015
Datum Zeit Temp. Aussen +5cm Feuchte Auss Luftdruck Regen Sonnenschein Regendauer Solar Windben
12.01.2015 00:00 6,3 C 4,4 C 87 % 1020,9 hPa 0,0 l/m 0 min 0 min 0 W/m 33,5 km/h (5 Bft)
12.01.2015 00:02 6,4 C 4,4 C 87 % 1020,9 hPa 0,0 l/m 0 min 0 min 0 W/m 37,7 km/h (5 Bft)
12.01.2015 00:05 6,4 C 4,4 C 86 % 1021,0 hPa 0,0 l/m 0 min 0 min 0 W/m 29,3 km/h (5 Bft)
12.01.2015 00:06 6,4 C 4,4 C 86 % 1021,1 hPa 0,0 l/m 0 min 0 min 0 W/m 29,3 km/h (5 Bft)
12.01.2015 00:11 6,4 C 5,0 C 86 % 1021,0 hPa 0,0 l/m 0 min 0 min 0 W/m 29,3 km/h (5 Bft)
12.01.2015 00:12 6,4 C 5,0 C 86 % 1021,0 hPa 0,0 l/m 0 min 0 min 0 W/m 29,3 km/h (5 Bft)
12.01.2015 00:14 6,4 C 4,4 C 86 % 1021,0 hPa 0,0 l/m 0 min 0 min 0 W/m 31,4 km/h (5 Bft)
12.01.2015 00:16 6,4 C 5,0 C 86 % 1020,9 hPa 0,0 l/m 0 min 0 min 0 W/m 27,2 km/h (4 Bft)
12.01.2015 00:18 6,4 C 5,0 C 86 % 1021,0 hPa 0,0 l/m 0 min 0 min 0 W/m 27,2 km/h (4 Bft)
12.01.2015 00:20 6,4 C 5,0 C 86 % 1021,0 hPa 0,0 l/m 0 min 0 min 0 W/m 35,6 km/h (5 Bft)
12.01.2015 00:22 6,4 C 5,0 C 86 % 1021,0 hPa 0,0 l/m 0 min 0 min 0 W/m 33,5 km/h (5 Bft)
12.01.2015 00:24 6,4 C 5,0 C 86 % 1020,9 hPa 0,0 l/m 0 min 0 min 0 W/m 39,7 km/h (6 Bft)
12.01.2015 00:26 6,4 C 5,0 C 86 % 1020,9 hPa 0,0 l/m 0 min 0 min 0 W/m 37,7 km/h (5 Bft)
12.01.2015 00:28 6,4 C 5,0 C 86 % 1020,8 hPa 0,0 l/m 0 min 0 min 0 W/m 35,6 km/h (5 Bft)
12.01.2015 00:30 6,5 C 5,0 C 86 % 1020,8 hPa 0,0 l/m 0 min 0 min 0 W/m 25,1 km/h (4 Bft)
12.01.2015 00:32 6,5 C 5,0 C 86 % 1020,7 hPa 0,0 l/m 0 min 0 min 0 W/m 35,6 km/h (5 Bft)
12.01.2015 00:34 6,5 C 5,0 C 86 % 1020,7 hPa 0,0 l/m 0 min 0 min 0 W/m 41,8 km/h (6 Bft)
12.01.2015 00:36 6,5 C 5,0 C 86 % 1020,7 hPa 0,0 l/m 0 min 0 min 0 W/m 29,3 km/h (5 Bft)
12.01.2015 00:38 6,5 C 5,0 C 86 % 1020,6 hPa 0,0 l/m 0 min 0 min 0 W/m 31,4 km/h (5 Bft)
12.01.2015 00:40 6,5 C 5,0 C 86 % 1020,6 hPa 0,0 l/m 0 min 0 min 0 W/m 29,3 km/h (5 Bft)
12.01.2015 00:42 6,6 C 5,0 C 86 % 1020,6 hPa 0,0 l/m 0 min 0 min 0 W/m 35,6 km/h (5 Bft)
12.01.2015 00:44 6,6 C 5,0 C 86 % 1020,7 hPa 0,0 l/m 0 min 0 min 0 W/m 31,4 km/h (5 Bft)
12.01.2015 00:46 6,6 C 5,0 C 86 % 1020,6 hPa 0,0 l/m 0 min 0 min 0 W/m 33,5 km/h (5 Bft)
12.01.2015 00:48 6,6 C 5,0 C 86 % 1020,6 hPa 0,0 l/m 0 min 0 min 0 W/m 39,7 km/h (6 Bft)
12.01.2015 00:50 6,6 C 5,0 C 86 % 1020,7 hPa 0,0 l/m 0 min 0 min 0 W/m 37,7 km/h (5 Bft)
12.01.2015 00:52 6,6 C 5,0 C 86 % 1020,6 hPa 0,0 l/m 0 min 0 min 0 W/m 29,3 km/h (5 Bft)
12.01.2015 00:54 6,6 C 5,0 C 86 % 1020,5 hPa 0,0 l/m 0 min 0 min 0 W/m 29,3 km/h (5 Bft)
12.01.2015 00:56 6,6 C 5,0 C 86 % 1020,5 hPa 0,0 l/m 0 min 0 min 0 W/m 27,2 km/h (4 Bft)
12.01.2015 00:58 6,6 C 5,0 C 86 % 1020,5 hPa 0,0 l/m 0 min 0 min 0 W/m 29,3 km/h (5 Bft)
12.01.2015 01:00 6,6 C 5,0 C 86 % 1020,4 hPa 0,0 l/m 0 min 0 min 0 W/m 33,5 km/h (5 Bft)
12.01.2015 01:02 6,6 C 5,0 C 86 % 1020,5 hPa 0,0 l/m 0 min 0 min 0 W/m 33,5 km/h (5 Bft)
12.01.2015 01:04 6,5 C 5,0 C 86 % 1020,4 hPa 0,0 l/m 0 min 0 min 0 W/m 33,5 km/h (5 Bft)
12.01.2015 01:06 6,5 C 5,0 C 86 % 1020,4 hPa 0,0 l/m 0 min 0 min 0 W/m 25,1 km/h (4 Bft)
12.01.2015 01:08 6,5 C 5,0 C 86 % 1020,4 hPa 0,0 l/m 0 min 0 min 0 W/m 25,1 km/h (4 Bft)
12.01.2015 01:10 6,5 C 5,0 C 86 % 1020,4 hPa 0,0 l/m 0 min 0 min 0 W/m 37,7 km/h (5 Bft)
12.01.2015 01:12 6,5 C 5,0 C 86 % 1020,3 hPa 0,0 l/m 0 min 0 min 0 W/m 33,5 km/h (5 Bft)
12.01.2015 01:14 6,5 C 5,0 C 87 % 1020,3 hPa 0,0 l/m 0 min 0 min 0 W/m 46,0 km/h (6 Bft)
12.01.2015 01:16 6,5 C 5,0 C 87 % 1020,3 hPa 0,0 l/m 0 min 0 min 0 W/m 37,7 km/h (5 Bft)
12.01.2015 01:18 6,5 C 5,0 C 87 % 1020,3 hPa 0,0 l/m 0 min 0 min 0 W/m 37,7 km/h (5 Bft)
12.01.2015 01:20 6,6 C 5,0 C 87 % 1020,1 hPa 0,0 l/m 0 min 0 min 0 W/m 35,6 km/h (5 Bft)
12.01.2015 01:22 6,6 C 5,0 C 87 % 1020,1 hPa 0,0 l/m 0 min 0 min 0 W/m 37,7 km/h (5 Bft)
12.01.2015 01:24 6,6 C 5,0 C 87 % 1020,1 hPa 0,0 l/m 0 min 0 min 0 W/m 37,7 km/h (5 Bft)
12.01.2015 01:26 6,6 C 5,0 C 87 % 1020,0 hPa 0,0 l/m 0 min 0 min 0 W/m 31,4 km/h (5 Bft)
12.01.2015 01:28 6,6 C 5,0 C 87 % 1020,1 hPa 0,0 l/m 0 min 0 min 0 W/m 46,0 km/h (6 Bft)
12.01.2015 01:30 6,6 C 5,0 C 87 % 1020,1 hPa 0,0 l/m 0 min 0 min 0 W/m 39,7 km/h (6 Bft)
12.01.2015 01:32 6,6 C 5,0 C 87 % 1020,0 hPa 0,0 l/m 0 min 0 min 0 W/m 31,4 km/h (5 Bft)
12.01.2015 01:34 6,6 C 5,0 C 87 % 1020,1 hPa 0,0 l/m 0 min 0 min 0 W/m 37,7 km/h (5 Bft)
12.01.2015 01:36 6,6 C 5,0 C 87 % 1020,1 hPa 0,0 l/m 0 min 0 min 0 W/m 37,7 km/h (5 Bft)
12.01.2015 01:38 6,6 C 5,0 C 87 % 1020,1 hPa 0,0 l/m 0 min 0 min 0 W/m 39,7 km/h (6 Bft)
12.01.2015 01:40 6,6 C 5,0 C 87 % 1020,1 hPa 0,0 l/m 0 min 0 min 0 W/m 33,5 km/h (5 Bft)
12.01.2015 01:42 6,6 C 5,0 C 87 % 1020,0 hPa 0,0 l/m 0 min 0 min 0 W/m 37,7 km/h (5 Bft)
12.01.2015 01:44 6,6 C 5,0 C 87 % 1020,0 hPa 0,0 l/m 0 min 0 min 0 W/m 25,1 km/h (4 Bft)
12.01.2015 01:46 6,6 C 5,0 C 87 % 1020,0 hPa 0,0 l/m 0 min 0 min 0 W/m 29,3 km/h (5 Bft)
12.01.2015 01:48 6,7 C 5,0 C 87 % 1020,0 hPa 0,0 l/m 0 min 0 min 0 W/m 35,6 km/h (5 Bft)
12.01.2015 01:50 6,7 C 5,0 C 87 % 1020,0 hPa 0,0 l/m 0 min 0 min 0 W/m 31,4 km/h (5 Bft)
12.01.2015 01:52 6,7 C 5,0 C 87 % 1019,9 hPa 0,0 l/m 0 min 0 min 0 W/m 27,2 km/h (4 Bft)
12.01.2015 01:54 6,7 C 5,0 C 87 % 1019,9 hPa 0,0 l/m 0 min 0 min 0 W/m 29,3 km/h (5 Bft)
12.01.2015 01:56 6,7 C 5,0 C 87 % 1019,7 hPa 0,0 l/m 0 min 0 min 0 W/m 29,3 km/h (5 Bft)
12.01.2015 01:58 6,7 C 5,0 C 87 % 1019,7 hPa 0,0 l/m 0 min 0 min 0 W/m 27,2 km/h (4 Bft)
12.01.2015 02:00 6,7 C 5,0 C 87 % 1019,6 hPa 0,0 l/m 0 min 0 min 0 W/m 25,1 km/h (4 Bft)
12.01.2015 02:02 6,7 C 5,0 C 87 % 1019,6 hPa 0,0 l/m 0 min 0 min 0 W/m 33,5 km/h (5 Bft)
12.01.2015 02:04 6,7 C 5,0 C 87 % 1019,7 hPa 0,0 l/m 0 min 0 min 0 W/m 33,5 km/h (5 Bft)
12.01.2015 02:06 6,7 C 5,6 C 87 % 1019,9 hPa 0,0 l/m 0 min 0 min 0 W/m 43,9 km/h (6 Bft)
12.01.2015 02:08 6,7 C 5,6 C 87 % 1019,7 hPa 0,0 l/m 0 min 0 min 0 W/m 33,5 km/h (5 Bft)
12.01.2015 02:10 6,7 C 5,6 C 87 % 1020,0 hPa 0,0 l/m 0 min 0 min 0 W/m 31,4 km/h (5 Bft)
12.01.2015 02:12 6,7 C 5,0 C 87 % 1019,9 hPa 0,0 l/m 0 min 0 min 0 W/m 31,4 km/h (5 Bft)
12.01.2015 02:14 6,7 C 5,6 C 87 % 1019,9 hPa 0,0 l/m 0 min 0 min 0 W/m 27,2 km/h (4 Bft)
12.01.2015 02:16 6,7 C 5,6 C 87 % 1019,9 hPa 0,0 l/m 0 min 0 min 0 W/m 31,4 km/h (5 Bft)
12.01.2015 02:18 6,7 C 5,6 C 87 % 1019,8 hPa 0,0 l/m 0 min 0 min 0 W/m 27,2 km/h (4 Bft)
12.01.2015 02:20 6,7 C 5,6 C 87 % 1019,7 hPa 0,0 l/m 0 min 0 min 0 W/m 39,7 km/h (6 Bft)
12.01.2015 02:22 6,7 C 5,6 C 87 % 1019,8 hPa 0,0 l/m 0 min 0 min 0 W/m 37,7 km/h (5 Bft)
12.01.2015 02:24 6,7 C 5,6 C 87 % 1019,7 hPa 0,0 l/m 0 min 0 min 0 W/m 33,5 km/h (5 Bft)
12.01.2015 02:26 6,7 C 5,6 C 87 % 1019,7 hPa 0,0 l/m 0 min 0 min 0 W/m 43,9 km/h (6 Bft)
12.01.2015 02:28 6,7 C 5,6 C 87 % 1019,7 hPa 0,0 l/m 0 min 0 min 0 W/m 37,7 km/h (5 Bft)
12.01.2015 02:30 6,7 C 5,6 C 87 % 1019,7 hPa 0,0 l/m 0 min 0 min 0 W/m 33,5 km/h (5 Bft)
12.01.2015 02:32 6,7 C 5,6 C 87 % 1019,7 hPa 0,0 l/m 0 min 0 min 0 W/m 33,5 km/h (5 Bft)
12.01.2015 02:34 6,7 C 5,0 C 87 % 1019,7 hPa 0,0 l/m 0 min 0 min 0 W/m 43,9 km/h (6 Bft)
12.01.2015 02:36 6,7 C 5,6 C 87 % 1019,6 hPa 0,0 l/m 0 min 0 min 0 W/m 31,4 km/h (5 Bft)
12.01.2015 02:38 6,7 C 5,6 C 87 % 1019,6 hPa 0,0 l/m 0 min 0 min 0 W/m 29,3 km/h (5 Bft)
12.01.2015 02:40 6,7 C 5,6 C 87 % 1019,6 hPa 0,0 l/m 0 min 0 min 0 W/m 33,5 km/h (5 Bft)
12.01.2015 02:42 6,7 C 5,6 C 87 % 1019,7 hPa 0,0 l/m 0 min 0 min 0 W/m 43,9 km/h (6 Bft)
12.01.2015 02:44 6,8 C 5,6 C 87 % 1019,7 hPa 0,0 l/m 0 min 0 min 0 W/m 33,5 km/h (5 Bft)
12.01.2015 02:46 6,8 C 5,6 C 87 % 1019,6 hPa 0,0 l/m 0 min 0 min 0 W/m 35,6 km/h (5 Bft)
12.01.2015 02:48 6,8 C 5,6 C 87 % 1019,6 hPa 0,0 l/m 0 min 0 min 0 W/m 29,3 km/h (5 Bft)
12.01.2015 02:50 6,8 C 5,6 C 87 % 1019,6 hPa 0,0 l/m 0 min 2 min 0 W/m 23,0 km/h (4 Bft)
12.01.2015 02:52 6,8 C 5,0 C 87 % 1019,6 hPa 0,0 l/m 0 min 0 min 0 W/m 27,2 km/h (4 Bft)
12.01.2015 02:54 6,8 C 5,0 C 87 % 1019,6 hPa 0,0 l/m 0 min 0 min 0 W/m 31,4 km/h (5 Bft)
12.01.2015 02:56 6,8 C 5,0 C 87 % 1019,7 hPa 0,0 l/m 0 min 0 min 0 W/m 27,2 km/h (4 Bft)
12.01.2015 02:58 6,8 C 5,6 C 87 % 1019,6 hPa 0,0 l/m 0 min 0 min 0 W/m 29,3 km/h (5 Bft)
12.01.2015 03:00 6,8 C 5,0 C 87 % 1019,5 hPa 0,0 l/m 0 min 0 min 0 W/m 18,8 km/h (3 Bft)
12.01.2015 03:02 6,8 C 5,0 C 87 % 1019,6 hPa 0,0 l/m 0 min 0 min 0 W/m 27,2 km/h (4 Bft)
12.01.2015 03:04 6,8 C 5,0 C 87 % 1019,6 hPa 0,0 l/m 0 min 0 min 0 W/m 25,1 km/h (4 Bft)
12.01.2015 03:06 6,8 C 5,0 C 87 % 1019,6 hPa 0,0 l/m 0 min 0 min 0 W/m 29,3 km/h (5 Bft)
12.01.2015 03:08 6,8 C 5,0 C 87 % 1019,6 hPa 0,0 l/m 0 min 0 min 0 W/m 41,8 km/h (6 Bft)
12.01.2015 03:10 6,8 C 5,0 C 87 % 1019,7 hPa 0,0 l/m 0 min 0 min 0 W/m 23,0 km/h (4 Bft)
12.01.2015 03:12 6,8 C 5,0 C 87 % 1019,6 hPa 0,0 l/m 0 min 0 min 0 W/m 37,7 km/h (5 Bft)
12.01.2015 03:14 6,8 C 5,0 C 87 % 1019,6 hPa 0,0 l/m 0 min 0 min 0 W/m 25,1 km/h (4 Bft)
12.01.2015 03:16 6,8 C 5,0 C 87 % 1019,5 hPa 0,0 l/m 0 min 0 min 0 W/m 29,3 km/h (5 Bft)
12.01.2015 03:18 6,8 C 5,0 C 87 % 1019,5 hPa 0,0 l/m 0 min 0 min 0 W/m 27,2 km/h (4 Bft)
12.01.2015 03:20 6,8 C 5,6 C 87 % 1019,5 hPa 0,0 l/m 0 min 0 min 0 W/m 29,3 km/h (5 Bft)
12.01.2015 03:22 6,8 C 5,0 C 87 % 1019,4 hPa 0,0 l/m 0 min 0 min 0 W/m 25,1 km/h (4 Bft)
12.01.2015 03:24 6,7 C 5,6 C 87 % 1019,4 hPa 0,0 l/m 0 min 0 min 0 W/m 35,6 km/h (5 Bft)
12.01.2015 03:26 6,7 C 5,6 C 88 % 1019,4 hPa 0,0 l/m 0 min 0 min 0 W/m 33,5 km/h (5 Bft)
12.01.2015 03:28 6,8 C 5,6 C 88 % 1019,4 hPa 0,0 l/m 0 min 0 min 0 W/m 25,1 km/h (4 Bft)
12.01.2015 03:30 6,8 C 5,6 C 88 % 1019,4 hPa 0,0 l/m 0 min 0 min 0 W/m 41,8 km/h (6 Bft)
12.01.2015 03:32 6,8 C 5,6 C 88 % 1019,4 hPa 0,0 l/m 0 min 0 min 0 W/m 37,7 km/h (5 Bft)
12.01.2015 03:34 6,8 C 5,6 C 88 % 1019,4 hPa 0,0 l/m 0 min 0 min 0 W/m 37,7 km/h (5 Bft)
12.01.2015 03:36 6,8 C 5,6 C 88 % 1019,4 hPa 0,0 l/m 0 min 0 min 0 W/m 33,5 km/h (5 Bft)
12.01.2015 03:38 6,8 C 5,6 C 88 % 1019,5 hPa 0,0 l/m 0 min 0 min 0 W/m 35,6 km/h (5 Bft)
12.01.2015 03:40 6,8 C 5,6 C 88 % 1019,5 hPa 0,0 l/m 0 min 0 min 0 W/m 37,7 km/h (5 Bft)
12.01.2015 03:42 6,8 C 5,6 C 88 % 1019,5 hPa 0,0 l/m 0 min 0 min 0 W/m 35,6 km/h (5 Bft)
12.01.2015 03:44 6,8 C 5,6 C 88 % 1019,5 hPa 0,0 l/m 0 min 0 min 0 W/m 27,2 km/h (4 Bft)
12.01.2015 03:46 6,8 C 5,6 C 88 % 1019,5 hPa 0,0 l/m 0 min 0 min 0 W/m 29,3 km/h (5 Bft)
12.01.2015 03:48 6,8 C 5,6 C 88 % 1019,5 hPa 0,0 l/m 0 min 0 min 0 W/m 39,7 km/h (6 Bft)
12.01.2015 03:50 6,8 C 5,6 C 88 % 1019,4 hPa 0,0 l/m 0 min 0 min 0 W/m 31,4 km/h (5 Bft)
12.01.2015 03:52 6,8 C 5,6 C 88 % 1019,5 hPa 0,0 l/m 0 min 0 min 0 W/m 35,6 km/h (5 Bft)
12.01.2015 03:54 6,8 C 5,6 C 88 % 1019,4 hPa 0,0 l/m 0 min 0 min 0 W/m 33,5 km/h (5 Bft)
12.01.2015 03:56 6,8 C 5,6 C 88 % 1019,4 hPa 0,0 l/m 0 min 0 min 0 W/m 39,7 km/h (6 Bft)
12.01.2015 03:58 6,8 C 5,6 C 88 % 1019,3 hPa 0,0 l/m 0 min 0 min 0 W/m 29,3 km/h (5 Bft)
12.01.2015 04:00 6,8 C 5,6 C 88 % 1019,2 hPa 0,0 l/m 0 min 0 min 0 W/m 29,3 km/h (5 Bft)
12.01.2015 04:02 6,8 C 5,6 C 88 % 1019,3 hPa 0,0 l/m 0 min 0 min 0 W/m 33,5 km/h (5 Bft)
12.01.2015 04:04 6,8 C 5,6 C 88 % 1019,2 hPa 0,0 l/m 0 min 0 min 0 W/m 31,4 km/h (5 Bft)
12.01.2015 04:06 6,9 C 5,6 C 88 % 1019,2 hPa 0,0 l/m 0 min 0 min 0 W/m 29,3 km/h (5 Bft)
12.01.2015 04:08 6,9 C 5,6 C 88 % 1019,2 hPa 0,0 l/m 0 min 0 min 0 W/m 29,3 km/h (5 Bft)
12.01.2015 04:10 6,9 C 5,6 C 88 % 1019,1 hPa 0,0 l/m 0 min 0 min 0 W/m 25,1 km/h (4 Bft)
12.01.2015 04:12 6,9 C 5,6 C 88 % 1019,1 hPa 0,0 l/m 0 min 0 min 0 W/m 35,6 km/h (5 Bft)
12.01.2015 04:14 6,9 C 5,6 C 88 % 1019,2 hPa 0,0 l/m 0 min 0 min 0 W/m 33,5 km/h (5 Bft)
12.01.2015 04:16 6,9 C 5,6 C 88 % 1019,2 hPa 0,0 l/m 0 min 0 min 0 W/m 33,5 km/h (5 Bft)
12.01.2015 04:18 6,9 C 5,6 C 88 % 1019,0 hPa 0,0 l/m 0 min 0 min 0 W/m 31,4 km/h (5 Bft)
12.01.2015 04:20 6,9 C 5,6 C 88 % 1019,1 hPa 0,0 l/m 0 min 0 min 0 W/m 41,8 km/h (6 Bft)
12.01.2015 04:22 6,9 C 5,6 C 88 % 1019,1 hPa 0,0 l/m 0 min 0 min 0 W/m 25,1 km/h (4 Bft)
12.01.2015 04:24 6,9 C 5,6 C 88 % 1019,1 hPa 0,0 l/m 0 min 0 min 0 W/m 31,4 km/h (5 Bft)
12.01.2015 04:26 6,9 C 5,6 C 88 % 1019,0 hPa 0,0 l/m 0 min 0 min 0 W/m 31,4 km/h (5 Bft)
12.01.2015 04:28 7,0 C 5,6 C 88 % 1019,0 hPa 0,0 l/m 0 min 0 min 0 W/m 41,8 km/h (6 Bft)
12.01.2015 04:30 7,0 C 5,6 C 88 % 1019,0 hPa 0,0 l/m 0 min 0 min 0 W/m 29,3 km/h (5 Bft)
12.01.2015 04:32 7,0 C 5,6 C 88 % 1018,9 hPa 0,0 l/m 0 min 0 min 0 W/m 43,9 km/h (6 Bft)
12.01.2015 04:34 7,0 C 5,6 C 88 % 1018,9 hPa 0,0 l/m 0 min 0 min 0 W/m 25,1 km/h (4 Bft)
12.01.2015 04:36 7,0 C 5,6 C 88 % 1019,0 hPa 0,0 l/m 0 min 0 min 0 W/m 33,5 km/h (5 Bft)
12.01.2015 04:38 7,0 C 5,6 C 88 % 1018,9 hPa 0,0 l/m 0 min 0 min 0 W/m 41,8 km/h (6 Bft)
12.01.2015 04:40 7,0 C 5,6 C 88 % 1019,0 hPa 0,0 l/m 0 min 0 min 0 W/m 41,8 km/h (6 Bft)
12.01.2015 04:42 7,0 C 5,6 C 88 % 1018,9 hPa 0,0 l/m 0 min 0 min 0 W/m 35,6 km/h (5 Bft)
12.01.2015 04:44 7,0 C 5,6 C 88 % 1018,7 hPa 0,0 l/m 0 min 0 min 0 W/m 35,6 km/h (5 Bft)
12.01.2015 04:46 7,0 C 5,6 C 88 % 1018,8 hPa 0,0 l/m 0 min 0 min 0 W/m 35,6 km/h (5 Bft)
12.01.2015 04:48 7,1 C 5,6 C 88 % 1018,8 hPa 0,0 l/m 0 min 0 min 0 W/m 39,7 km/h (6 Bft)
12.01.2015 04:50 7,0 C 5,6 C 88 % 1018,8 hPa 0,0 l/m 0 min 0 min 0 W/m 35,6 km/h (5 Bft)
12.01.2015 04:52 7,0 C 5,6 C 88 % 1018,9 hPa 0,0 l/m 0 min 0 min 0 W/m 35,6 km/h (5 Bft)
12.01.2015 04:54 7,0 C 5,6 C 88 % 1018,9 hPa 0,0 l/m 0 min 0 min 0 W/m 31,4 km/h (5 Bft)
12.01.2015 04:56 7,0 C 5,6 C 88 % 1018,9 hPa 0,0 l/m 0 min 0 min 0 W/m 41,8 km/h (6 Bft)
12.01.2015 04:58 7,0 C 5,6 C 88 % 1019,1 hPa 0,0 l/m 0 min 0 min 0 W/m 39,7 km/h (6 Bft)
12.01.2015 05:00 7,0 C 5,6 C 88 % 1019,0 hPa 0,0 l/m 0 min 2 min 0 W/m 41,8 km/h (6 Bft)
12.01.2015 05:02 7,0 C 5,6 C 88 % 1019,0 hPa 0,0 l/m 0 min 0 min 0 W/m 48,1 km/h (6 Bft)
12.01.2015 05:04 6,9 C 5,6 C 88 % 1018,8 hPa 0,0 l/m 0 min 0 min 0 W/m 43,9 km/h (6 Bft)
12.01.2015 05:06 6,9 C 5,6 C 88 % 1019,0 hPa 0,0 l/m 0 min 0 min 0 W/m 39,7 km/h (6 Bft)
12.01.2015 05:08 6,9 C 5,6 C 88 % 1018,9 hPa 0,0 l/m 0 min 0 min 0 W/m 37,7 km/h (5 Bft)
12.01.2015 05:10 6,9 C 5,6 C 88 % 1018,9 hPa 0,0 l/m 0 min 0 min 0 W/m 43,9 km/h (6 Bft)
12.01.2015 05:12 6,9 C 5,0 C 88 % 1018,8 hPa 0,0 l/m 0 min 0 min 0 W/m 33,5 km/h (5 Bft)
12.01.2015 05:14 6,8 C 5,0 C 88 % 1018,6 hPa 0,0 l/m 0 min 0 min 0 W/m 43,9 km/h (6 Bft)
12.01.2015 05:16 6,8 C 5,0 C 88 % 1018,6 hPa 0,0 l/m 0 min 0 min 0 W/m 33,5 km/h (5 Bft)
12.01.2015 05:18 6,8 C 5,0 C 89 % 1018,5 hPa 0,0 l/m 0 min 0 min 0 W/m 27,2 km/h (4 Bft)
12.01.2015 05:20 6,8 C 5,0 C 89 % 1018,5 hPa 0,0 l/m 0 min 0 min 0 W/m 37,7 km/h (5 Bft)
12.01.2015 05:22 6,7 C 5,0 C 89 % 1018,5 hPa 0,0 l/m 0 min 0 min 0 W/m 31,4 km/h (5 Bft)
12.01.2015 05:24 6,7 C 5,0 C 89 % 1018,4 hPa 0,0 l/m 0 min 0 min 0 W/m 29,3 km/h (5 Bft)
12.01.2015 05:26 6,7 C 5,0 C 89 % 1018,4 hPa 0,0 l/m 0 min 0 min 0 W/m 27,2 km/h (4 Bft)
12.01.2015 05:28 6,7 C 5,0 C 89 % 1018,5 hPa 0,0 l/m 0 min 0 min 0 W/m 25,1 km/h (4 Bft)
12.01.2015 05:30 6,6 C 5,0 C 89 % 1018,5 hPa 0,0 l/m 0 min 0 min 0 W/m 35,6 km/h (5 Bft)
12.01.2015 05:32 6,6 C 5,0 C 89 % 1018,5 hPa 0,0 l/m 0 min 0 min 0 W/m 33,5 km/h (5 Bft)
12.01.2015 05:34 6,6 C 5,0 C 89 % 1018,4 hPa 0,0 l/m 0 min 0 min 0 W/m 46,0 km/h (6 Bft)
12.01.2015 05:36 6,6 C 5,6 C 89 % 1018,4 hPa 0,0 l/m 0 min 0 min 0 W/m 33,5 km/h (5 Bft)
12.01.2015 05:38 6,6 C 5,0 C 89 % 1018,4 hPa 0,0 l/m 0 min 0 min 0 W/m 33,5 km/h (5 Bft)
12.01.2015 05:40 6,6 C 5,6 C 89 % 1018,4 hPa 0,0 l/m 0 min 0 min 0 W/m 23,0 km/h (4 Bft)
12.01.2015 05:42 6,6 C 5,6 C 89 % 1018,4 hPa 0,0 l/m 0 min 0 min 0 W/m 35,6 km/h (5 Bft)
12.01.2015 05:44 6,6 C 5,6 C 89 % 1018,3 hPa 0,0 l/m 0 min 0 min 0 W/m 37,7 km/h (5 Bft)
12.01.2015 05:46 6,6 C 5,6 C 89 % 1018,3 hPa 0,0 l/m 0 min 0 min 0 W/m 37,7 km/h (5 Bft)
12.01.2015 05:48 6,6 C 5,6 C 89 % 1018,3 hPa 0,0 l/m 0 min 0 min 0 W/m 20,9 km/h (4 Bft)
12.01.2015 05:50 6,6 C 5,6 C 89 % 1018,3 hPa 0,0 l/m 0 min 0 min 0 W/m 25,1 km/h (4 Bft)
12.01.2015 05:52 6,6 C 5,6 C 89 % 1018,3 hPa 0,0 l/m 0 min 0 min 0 W/m 33,5 km/h (5 Bft)
12.01.2015 05:54 6,6 C 5,6 C 89 % 1018,2 hPa 0,0 l/m 0 min 0 min 0 W/m 31,4 km/h (5 Bft)
12.01.2015 05:56 6,6 C 5,6 C 89 % 1018,4 hPa 0,0 l/m 0 min 0 min 0 W/m 39,7 km/h (6 Bft)
12.01.2015 05:58 6,6 C 5,0 C 89 % 1018,2 hPa 0,0 l/m 0 min 2 min 0 W/m 29,3 km/h (5 Bft)
12.01.2015 06:00 6,6 C 5,0 C 89 % 1018,3 hPa 0,0 l/m 0 min 2 min 0 W/m 35,6 km/h (5 Bft)
12.01.2015 06:02 6,6 C 5,0 C 89 % 1018,3 hPa 0,0 l/m 0 min 2 min 0 W/m 39,7 km/h (6 Bft)
12.01.2015 06:05 6,6 C 5,0 C 89 % 1018,2 hPa 0,0 l/m 0 min 2 min 0 W/m 39,7 km/h (6 Bft)
12.01.2015 06:10 6,6 C 5,0 C 89 % 1018,2 hPa 0,0 l/m 0 min 2 min 0 W/m 43,9 km/h (6 Bft)
12.01.2015 06:16 6,5 C 5,0 C 89 % 1018,1 hPa 0,0 l/m 0 min 0 min 0 W/m 43,9 km/h (6 Bft)
12.01.2015 06:18 6,5 C 5,0 C 89 % 1018,0 hPa 0,0 l/m 0 min 0 min 0 W/m 37,7 km/h (5 Bft)
12.01.2015 06:20 6,5 C 5,0 C 89 % 1017,9 hPa 0,0 l/m 0 min 0 min 0 W/m 35,6 km/h (5 Bft)
12.01.2015 06:22 6,5 C 5,0 C 89 % 1017,8 hPa 0,0 l/m 0 min 0 min 0 W/m 33,5 km/h (5 Bft)
12.01.2015 06:24 6,5 C 5,0 C 89 % 1017,8 hPa 0,0 l/m 0 min 0 min 0 W/m 37,7 km/h (5 Bft)
12.01.2015 06:26 6,5 C 5,0 C 89 % 1017,8 hPa 0,0 l/m 0 min 0 min 0 W/m 33,5 km/h (5 Bft)
12.01.2015 06:28 6,5 C 5,0 C 89 % 1017,8 hPa 0,0 l/m 0 min 0 min 0 W/m 29,3 km/h (5 Bft)
12.01.2015 06:30 6,5 C 5,0 C 89 % 1017,9 hPa 0,0 l/m 0 min 0 min 0 W/m 31,4 km/h (5 Bft)
12.01.2015 06:32 6,5 C 5,0 C 89 % 1017,9 hPa 0,0 l/m 0 min 0 min 0 W/m 33,5 km/h (5 Bft)
12.01.2015 06:34 6,5 C 5,0 C 89 % 1017,7 hPa 0,0 l/m 0 min 0 min 0 W/m 31,4 km/h (5 Bft)
12.01.2015 06:36 6,6 C 5,0 C 89 % 1017,8 hPa 0,0 l/m 0 min 0 min 0 W/m 29,3 km/h (5 Bft)
12.01.2015 06:38 6,6 C 5,6 C 89 % 1017,6 hPa 0,0 l/m 0 min 0 min 0 W/m 35,6 km/h (5 Bft)
12.01.2015 06:40 6,6 C 5,6 C 89 % 1017,6 hPa 0,0 l/m 0 min 0 min 0 W/m 27,2 km/h (4 Bft)
12.01.2015 06:42 6,6 C 5,6 C 88 % 1017,6 hPa 0,0 l/m 0 min 2 min 0 W/m 41,8 km/h (6 Bft)
12.01.2015 06:44 6,6 C 5,6 C 88 % 1017,4 hPa 0,0 l/m 0 min 0 min 0 W/m 27,2 km/h (4 Bft)
12.01.2015 06:46 6,7 C 5,6 C 88 % 1017,5 hPa 0,0 l/m 0 min 0 min 0 W/m 39,7 km/h (6 Bft)
12.01.2015 06:48 6,7 C 5,6 C 88 % 1017,5 hPa 0,0 l/m 0 min 0 min 0 W/m 31,4 km/h (5 Bft)
12.01.2015 06:50 6,7 C 5,6 C 88 % 1017,4 hPa 0,0 l/m 0 min 0 min 0 W/m 35,6 km/h (5 Bft)
12.01.2015 06:52 6,7 C 5,6 C 88 % 1017,4 hPa 0,0 l/m 0 min 0 min 0 W/m 27,2 km/h (4 Bft)
12.01.2015 06:54 6,7 C 5,6 C 87 % 1017,4 hPa 0,0 l/m 0 min 0 min 0 W/m 41,8 km/h (6 Bft)
12.01.2015 06:56 6,7 C 5,6 C 87 % 1017,3 hPa 0,0 l/m 0 min 0 min 0 W/m 48,1 km/h (6 Bft)
12.01.2015 06:58 6,7 C 5,6 C 87 % 1017,3 hPa 0,0 l/m 0 min 0 min 0 W/m 31,4 km/h (5 Bft)
12.01.2015 07:00 6,8 C 5,6 C 87 % 1017,2 hPa 0,0 l/m 0 min 0 min 0 W/m 35,6 km/h (5 Bft)
12.01.2015 07:02 6,8 C 5,6 C 87 % 1017,2 hPa 0,0 l/m 0 min 0 min 0 W/m 37,7 km/h (5 Bft)
12.01.2015 07:04 6,8 C 5,6 C 87 % 1017,3 hPa 0,0 l/m 0 min 0 min 0 W/m 48,1 km/h (6 Bft)
12.01.2015 07:06 6,8 C 5,6 C 87 % 1017,2 hPa 0,0 l/m 0 min 0 min 0 W/m 29,3 km/h (5 Bft)
12.01.2015 07:08 6,8 C 5,6 C 87 % 1017,2 hPa 0,0 l/m 0 min 0 min 0 W/m 33,5 km/h (5 Bft)
12.01.2015 07:10 6,8 C 5,6 C 87 % 1017,3 hPa 0,0 l/m 0 min 0 min 0 W/m 35,6 km/h (5 Bft)
12.01.2015 07:12 6,8 C 5,6 C 86 % 1017,2 hPa 0,0 l/m 0 min 0 min 0 W/m 20,9 km/h (4 Bft)
12.01.2015 07:14 6,8 C 5,6 C 86 % 1017,1 hPa 0,0 l/m 0 min 0 min 0 W/m 20,9 km/h (4 Bft)
12.01.2015 07:16 6,8 C 5,6 C 86 % 1017,3 hPa 0,0 l/m 0 min 0 min 0 W/m 35,6 km/h (5 Bft)
12.01.2015 07:18 6,8 C 5,6 C 86 % 1017,2 hPa 0,0 l/m 0 min 0 min 0 W/m 39,7 km/h (6 Bft)
12.01.2015 07:20 6,8 C 5,6 C 86 % 1017,3 hPa 0,0 l/m 0 min 0 min 0 W/m 39,7 km/h (6 Bft)
12.01.2015 07:22 6,8 C 5,6 C 86 % 1017,2 hPa 0,0 l/m 0 min 0 min 0 W/m 31,4 km/h (5 Bft)
12.01.2015 07:24 6,8 C 5,6 C 86 % 1017,1 hPa 0,0 l/m 0 min 0 min 0 W/m 41,8 km/h (6 Bft)
12.01.2015 07:26 6,8 C 5,6 C 86 % 1017,1 hPa 0,0 l/m 0 min 0 min 0 W/m 31,4 km/h (5 Bft)
12.01.2015 07:28 6,8 C 5,6 C 86 % 1017,1 hPa 0,0 l/m 0 min 0 min 0 W/m 31,4 km/h (5 Bft)
12.01.2015 07:30 6,8 C 5,6 C 86 % 1017,1 hPa 0,0 l/m 0 min 2 min 0 W/m 33,5 km/h (5 Bft)
12.01.2015 07:32 6,8 C 5,0 C 86 % 1017,1 hPa 0,0 l/m 0 min 0 min 0 W/m 37,7 km/h (5 Bft)
12.01.2015 07:34 6,7 C 5,0 C 86 % 1017,1 hPa 0,0 l/m 0 min 0 min 0 W/m 23,0 km/h (4 Bft)
12.01.2015 07:36 6,7 C 5,0 C 86 % 1017,1 hPa 0,0 l/m 0 min 0 min 0 W/m 41,8 km/h (6 Bft)
12.01.2015 07:38 6,7 C 5,0 C 86 % 1017,1 hPa 0,0 l/m 0 min 0 min 0 W/m 29,3 km/h (5 Bft)
12.01.2015 07:40 6,7 C 5,0 C 86 % 1017,1 hPa 0,0 l/m 0 min 0 min 0 W/m 37,7 km/h (5 Bft)
12.01.2015 07:42 6,7 C 5,0 C 87 % 1017,2 hPa 0,0 l/m 0 min 0 min 0 W/m 33,5 km/h (5 Bft)
12.01.2015 07:44 6,7 C 5,0 C 86 % 1017,2 hPa 0,0 l/m 0 min 0 min 0 W/m 37,7 km/h (5 Bft)
12.01.2015 07:46 6,7 C 5,6 C 86 % 1017,3 hPa 0,0 l/m 0 min 0 min 0 W/m 33,5 km/h (5 Bft)
12.01.2015 07:48 6,7 C 5,6 C 86 % 1017,3 hPa 0,0 l/m 0 min 0 min 0 W/m 31,4 km/h (5 Bft)
12.01.2015 07:50 6,7 C 5,6 C 86 % 1017,1 hPa 0,0 l/m 0 min 0 min 0 W/m 50,2 km/h (7 Bft)
12.01.2015 07:52 6,7 C 5,6 C 86 % 1017,1 hPa 0,0 l/m 0 min 0 min 0 W/m 39,7 km/h (6 Bft)
12.01.2015 07:54 6,7 C 5,6 C 86 % 1017,1 hPa 0,0 l/m 0 min 0 min 0 W/m 41,8 km/h (6 Bft)
12.01.2015 07:56 6,7 C 5,6 C 86 % 1017,2 hPa 0,0 l/m 0 min 0 min 0 W/m 31,4 km/h (5 Bft)
12.01.2015 07:58 6,7 C 5,6 C 86 % 1017,1 hPa 0,0 l/m 0 min 0 min 0 W/m 41,8 km/h (6 Bft)
12.01.2015 08:00 6,7 C 5,6 C 86 % 1017,2 hPa 0,0 l/m 0 min 0 min 0 W/m 33,5 km/h (5 Bft)
12.01.2015 08:04 6,7 C 5,6 C 86 % 1017,1 hPa 0,0 l/m 0 min 0 min 0 W/m 48,1 km/h (6 Bft)
12.01.2015 08:06 6,7 C 5,6 C 85 % 1017,2 hPa 0,0 l/m 0 min 0 min 0 W/m 41,8 km/h (6 Bft)
12.01.2015 08:08 6,7 C 5,6 C 85 % 1017,2 hPa 0,0 l/m 0 min 0 min 0 W/m 50,2 km/h (7 Bft)
12.01.2015 08:10 6,8 C 5,6 C 85 % 1017,0 hPa 0,0 l/m 0 min 0 min 0 W/m 39,7 km/h (6 Bft)
12.01.2015 08:12 6,8 C 5,6 C 85 % 1017,1 hPa 0,0 l/m 0 min 0 min 0 W/m 43,9 km/h (6 Bft)
12.01.2015 08:14 6,8 C 5,6 C 85 % 1017,1 hPa 0,0 l/m 0 min 0 min 0 W/m 43,9 km/h (6 Bft)
12.01.2015 08:16 6,8 C 5,6 C 85 % 1017,4 hPa 0,0 l/m 0 min 0 min 0 W/m 52,3 km/h (7 Bft)
12.01.2015 08:18 6,8 C 5,6 C 85 % 1017,4 hPa 0,0 l/m 0 min 0 min 0 W/m 31,4 km/h (5 Bft)
12.01.2015 08:20 6,8 C 5,6 C 84 % 1017,2 hPa 0,0 l/m 0 min 0 min 0 W/m 48,1 km/h (6 Bft)
12.01.2015 08:22 6,9 C 5,6 C 84 % 1017,3 hPa 0,0 l/m 0 min 0 min 0 W/m 46,0 km/h (6 Bft)
12.01.2015 08:24 6,9 C 5,6 C 84 % 1017,2 hPa 0,0 l/m 0 min 0 min 0 W/m 41,8 km/h (6 Bft)
12.01.2015 08:26 6,9 C 5,6 C 84 % 1017,2 hPa 0,0 l/m 0 min 0 min 0 W/m 52,3 km/h (7 Bft)
12.01.2015 08:28 6,9 C 5,6 C 84 % 1017,3 hPa 0,0 l/m 0 min 0 min 0 W/m 48,1 km/h (6 Bft)
12.01.2015 08:30 6,9 C 5,6 C 84 % 1017,3 hPa 0,0 l/m 0 min 0 min 0 W/m 48,1 km/h (6 Bft)
12.01.2015 08:32 6,9 C 5,6 C 84 % 1017,2 hPa 0,0 l/m 0 min 0 min 0 W/m 64,9 km/h (8 Bft)
12.01.2015 08:34 6,9 C 5,6 C 84 % 1017,2 hPa 0,0 l/m 0 min 0 min 0 W/m 43,9 km/h (6 Bft)
12.01.2015 08:36 6,9 C 5,6 C 84 % 1017,1 hPa 0,0 l/m 0 min 0 min 0 W/m 37,7 km/h (5 Bft)
12.01.2015 08:38 6,9 C 5,6 C 84 % 1017,2 hPa 0,0 l/m 0 min 0 min 0 W/m 41,8 km/h (6 Bft)
12.01.2015 08:40 6,9 C 5,6 C 84 % 1017,0 hPa 0,0 l/m 0 min 0 min 0 W/m 41,8 km/h (6 Bft)
12.01.2015 08:42 6,9 C 5,6 C 84 % 1017,1 hPa 0,0 l/m 0 min 0 min 5 W/m 41,8 km/h (6 Bft)
12.01.2015 08:44 6,9 C 5,6 C 84 % 1017,0 hPa 0,0 l/m 0 min 0 min 5 W/m 33,5 km/h (5 Bft)
12.01.2015 08:46 6,9 C 5,6 C 84 % 1017,0 hPa 0,0 l/m 0 min 0 min 5 W/m 58,6 km/h (7 Bft)
12.01.2015 08:48 7,0 C 5,6 C 83 % 1016,9 hPa 0,0 l/m 0 min 0 min 7 W/m 50,2 km/h (7 Bft)
12.01.2015 08:50 7,0 C 5,6 C 83 % 1016,9 hPa 0,0 l/m 0 min 0 min 8 W/m 41,8 km/h (6 Bft)
12.01.2015 08:52 7,0 C 5,6 C 83 % 1017,0 hPa 0,0 l/m 0 min 0 min 9 W/m 39,7 km/h (6 Bft)
12.01.2015 08:54 7,0 C 5,6 C 83 % 1017,0 hPa 0,0 l/m 0 min 0 min 9 W/m 41,8 km/h (6 Bft)
12.01.2015 08:56 7,0 C 5,6 C 83 % 1017,0 hPa 0,0 l/m 0 min 0 min 11 W/m 35,6 km/h (5 Bft)
12.01.2015 08:58 7,0 C 5,6 C 83 % 1017,0 hPa 0,0 l/m 0 min 0 min 11 W/m 43,9 km/h (6 Bft)
12.01.2015 09:00 7,0 C 5,6 C 83 % 1016,9 hPa 0,0 l/m 0 min 0 min 12 W/m 46,0 km/h (6 Bft)
12.01.2015 09:02 7,0 C 5,6 C 83 % 1017,0 hPa 0,0 l/m 0 min 0 min 12 W/m 50,2 km/h (7 Bft)
12.01.2015 09:04 7,0 C 5,6 C 83 % 1016,9 hPa 0,0 l/m 0 min 0 min 13 W/m 29,3 km/h (5 Bft)
12.01.2015 09:06 7,1 C 5,6 C 83 % 1016,9 hPa 0,0 l/m 0 min 0 min 14 W/m 41,8 km/h (6 Bft)
12.01.2015 09:08 7,1 C 5,6 C 83 % 1017,0 hPa 0,0 l/m 0 min 0 min 16 W/m 35,6 km/h (5 Bft)
12.01.2015 09:10 7,1 C 5,6 C 83 % 1017,0 hPa 0,0 l/m 0 min 0 min 16 W/m 50,2 km/h (7 Bft)
12.01.2015 09:12 7,1 C 5,6 C 83 % 1016,9 hPa 0,0 l/m 0 min 0 min 14 W/m 27,2 km/h (4 Bft)
12.01.2015 09:14 7,1 C 5,6 C 83 % 1017,0 hPa 0,0 l/m 0 min 0 min 12 W/m 43,9 km/h (6 Bft)
12.01.2015 09:16 7,1 C 5,6 C 83 % 1017,0 hPa 0,0 l/m 0 min 0 min 14 W/m 41,8 km/h (6 Bft)
12.01.2015 09:18 7,1 C 5,6 C 83 % 1017,1 hPa 0,0 l/m 0 min 0 min 16 W/m 35,6 km/h (5 Bft)
12.01.2015 09:20 7,1 C 5,6 C 83 % 1017,0 hPa 0,0 l/m 0 min 0 min 16 W/m 33,5 km/h (5 Bft)
12.01.2015 09:22 7,1 C 5,6 C 83 % 1017,1 hPa 0,0 l/m 0 min 0 min 18 W/m 43,9 km/h (6 Bft)
12.01.2015 09:24 7,2 C 6,1 C 83 % 1016,9 hPa 0,0 l/m 0 min 0 min 18 W/m 46,0 km/h (6 Bft)
12.01.2015 09:26 7,2 C 6,1 C 83 % 1016,9 hPa 0,0 l/m 0 min 0 min 23 W/m 35,6 km/h (5 Bft)
12.01.2015 09:28 7,2 C 6,1 C 83 % 1016,7 hPa 0,0 l/m 0 min 0 min 24 W/m 50,2 km/h (7 Bft)
12.01.2015 09:30 7,2 C 6,1 C 83 % 1016,8 hPa 0,0 l/m 0 min 0 min 29 W/m 43,9 km/h (6 Bft)
12.01.2015 09:32 7,2 C 6,1 C 82 % 1016,7 hPa 0,0 l/m 0 min 0 min 30 W/m 62,8 km/h (8 Bft)
12.01.2015 09:34 7,3 C 6,1 C 82 % 1016,6 hPa 0,0 l/m 0 min 0 min 30 W/m 54,4 km/h (7 Bft)
12.01.2015 09:36 7,3 C 6,1 C 82 % 1016,7 hPa 0,0 l/m 0 min 0 min 28 W/m 39,7 km/h (6 Bft)
12.01.2015 09:38 7,3 C 6,1 C 82 % 1016,7 hPa 0,0 l/m 0 min 0 min 28 W/m 46,0 km/h (6 Bft)
12.01.2015 09:40 7,3 C 6,1 C 82 % 1016,8 hPa 0,0 l/m 0 min 0 min 27 W/m 39,7 km/h (6 Bft)
12.01.2015 09:42 7,3 C 6,1 C 82 % 1016,7 hPa 0,0 l/m 0 min 0 min 28 W/m 48,1 km/h (6 Bft)
12.01.2015 09:44 7,4 C 6,1 C 82 % 1016,7 hPa 0,0 l/m 0 min 0 min 28 W/m 35,6 km/h (5 Bft)
12.01.2015 09:46 7,4 C 6,1 C 82 % 1016,7 hPa 0,0 l/m 0 min 0 min 30 W/m 37,7 km/h (5 Bft)
12.01.2015 09:48 7,4 C 6,1 C 82 % 1016,7 hPa 0,0 l/m 0 min 0 min 26 W/m 46,0 km/h (6 Bft)
12.01.2015 09:50 7,4 C 6,1 C 81 % 1016,7 hPa 0,0 l/m 0 min 0 min 27 W/m 56,5 km/h (7 Bft)
12.01.2015 09:52 7,4 C 6,1 C 81 % 1016,7 hPa 0,0 l/m 0 min 0 min 31 W/m 43,9 km/h (6 Bft)
12.01.2015 09:54 7,4 C 6,1 C 81 % 1016,6 hPa 0,0 l/m 0 min 0 min 31 W/m 52,3 km/h (7 Bft)
12.01.2015 09:56 7,5 C 6,1 C 81 % 1016,7 hPa 0,0 l/m 0 min 0 min 27 W/m 31,4 km/h (5 Bft)
12.01.2015 09:58 7,5 C 6,1 C 81 % 1016,6 hPa 0,0 l/m 0 min 0 min 26 W/m 31,4 km/h (5 Bft)
12.01.2015 10:00 7,5 C 6,1 C 81 % 1016,7 hPa 0,0 l/m 0 min 0 min 26 W/m 41,8 km/h (6 Bft)
12.01.2015 10:02 7,5 C 6,1 C 81 % 1016,7 hPa 0,0 l/m 0 min 0 min 29 W/m 39,7 km/h (6 Bft)
12.01.2015 10:04 7,6 C 6,1 C 81 % 1016,7 hPa 0,0 l/m 0 min 0 min 26 W/m 41,8 km/h (6 Bft)
12.01.2015 10:06 7,6 C 6,1 C 81 % 1016,6 hPa 0,0 l/m 0 min 0 min 28 W/m 39,7 km/h (6 Bft)
12.01.2015 10:08 7,6 C 6,1 C 81 % 1016,7 hPa 0,0 l/m 0 min 0 min 30 W/m 33,5 km/h (5 Bft)
12.01.2015 10:10 7,6 C 6,1 C 81 % 1016,8 hPa 0,0 l/m 0 min 0 min 26 W/m 37,7 km/h (5 Bft)
12.01.2015 10:12 7,6 C 6,1 C 81 % 1016,7 hPa 0,0 l/m 0 min 0 min 32 W/m 41,8 km/h (6 Bft)
12.01.2015 10:14 7,6 C 6,1 C 81 % 1016,7 hPa 0,0 l/m 0 min 0 min 27 W/m 50,2 km/h (7 Bft)
12.01.2015 10:16 7,6 C 6,7 C 81 % 1016,7 hPa 0,0 l/m 0 min 0 min 25 W/m 43,9 km/h (6 Bft)
12.01.2015 10:18 7,7 C 6,1 C 81 % 1016,8 hPa 0,0 l/m 0 min 0 min 26 W/m 41,8 km/h (6 Bft)
12.01.2015 10:20 7,7 C 6,7 C 81 % 1016,7 hPa 0,0 l/m 0 min 0 min 28 W/m 50,2 km/h (7 Bft)
12.01.2015 10:22 7,7 C 6,7 C 80 % 1016,4 hPa 0,0 l/m 0 min 0 min 29 W/m 25,1 km/h (4 Bft)
12.01.2015 10:24 7,7 C 6,7 C 80 % 1016,5 hPa 0,0 l/m 0 min 0 min 30 W/m 43,9 km/h (6 Bft)
12.01.2015 10:30 7,7 C 6,7 C 80 % 1016,3 hPa 0,0 l/m 0 min 0 min 37 W/m 52,3 km/h (7 Bft)
12.01.2015 10:36 7,8 C 6,7 C 80 % 1016,4 hPa 0,0 l/m 0 min 0 min 33 W/m 43,9 km/h (6 Bft)
12.01.2015 10:38 7,8 C 6,7 C 80 % 1016,3 hPa 0,0 l/m 0 min 0 min 37 W/m 39,7 km/h (6 Bft)
12.01.2015 10:40 7,8 C 6,7 C 80 % 1016,3 hPa 0,0 l/m 0 min 0 min 40 W/m 52,3 km/h (7 Bft)
12.01.2015 10:44 7,9 C 6,7 C 80 % 1016,4 hPa 0,0 l/m 0 min 0 min 36 W/m 62,8 km/h (8 Bft)
12.01.2015 10:46 7,9 C 6,7 C 79 % 1016,3 hPa 0,0 l/m 0 min 0 min 31 W/m 43,9 km/h (6 Bft)
12.01.2015 10:48 7,9 C 6,7 C 79 % 1016,4 hPa 0,0 l/m 0 min 0 min 26 W/m 37,7 km/h (5 Bft)
12.01.2015 10:50 7,9 C 6,7 C 79 % 1016,3 hPa 0,0 l/m 0 min 0 min 23 W/m 43,9 km/h (6 Bft)
12.01.2015 10:52 7,9 C 6,7 C 79 % 1016,3 hPa 0,0 l/m 0 min 0 min 21 W/m 50,2 km/h (7 Bft)
12.01.2015 10:54 7,9 C 6,7 C 79 % 1016,4 hPa 0,0 l/m 0 min 0 min 21 W/m 52,3 km/h (7 Bft)
12.01.2015 10:56 7,9 C 6,7 C 79 % 1016,3 hPa 0,0 l/m 0 min 0 min 25 W/m 33,5 km/h (5 Bft)
12.01.2015 10:58 7,9 C 6,7 C 79 % 1016,2 hPa 0,0 l/m 0 min 0 min 27 W/m 33,5 km/h (5 Bft)
12.01.2015 11:00 7,9 C 6,7 C 79 % 1016,3 hPa 0,0 l/m 0 min 0 min 29 W/m 58,6 km/h (7 Bft)
12.01.2015 11:02 7,9 C 6,7 C 79 % 1016,2 hPa 0,0 l/m 0 min 0 min 32 W/m 56,5 km/h (7 Bft)
12.01.2015 11:04 7,9 C 6,7 C 79 % 1016,2 hPa 0,0 l/m 0 min 0 min 33 W/m 48,1 km/h (6 Bft)
12.01.2015 11:06 7,9 C 6,7 C 79 % 1016,2 hPa 0,0 l/m 0 min 0 min 35 W/m 27,2 km/h (4 Bft)
12.01.2015 11:08 8,0 C 6,7 C 79 % 1016,1 hPa 0,0 l/m 0 min 0 min 39 W/m 31,4 km/h (5 Bft)
12.01.2015 11:10 8,0 C 6,7 C 80 % 1016,2 hPa 0,0 l/m 0 min 0 min 35 W/m 46,0 km/h (6 Bft)
12.01.2015 11:12 8,0 C 6,7 C 79 % 1016,2 hPa 0,0 l/m 0 min 0 min 41 W/m 46,0 km/h (6 Bft)
12.01.2015 11:14 8,0 C 6,7 C 79 % 1016,2 hPa 0,0 l/m 0 min 0 min 51 W/m 31,4 km/h (5 Bft)
12.01.2015 11:16 8,0 C 6,7 C 79 % 1016,2 hPa 0,0 l/m 0 min 0 min 61 W/m 41,8 km/h (6 Bft)
12.01.2015 11:18 8,0 C 6,7 C 79 % 1016,2 hPa 0,0 l/m 0 min 0 min 61 W/m 39,7 km/h (6 Bft)
12.01.2015 11:20 8,0 C 6,7 C 79 % 1016,2 hPa 0,0 l/m 0 min 0 min 58 W/m 41,8 km/h (6 Bft)
12.01.2015 11:22 8,1 C 6,7 C 79 % 1016,2 hPa 0,0 l/m 0 min 0 min 59 W/m 23,0 km/h (4 Bft)
12.01.2015 11:24 8,1 C 6,7 C 79 % 1016,1 hPa 0,0 l/m 0 min 0 min 54 W/m 46,0 km/h (6 Bft)
12.01.2015 11:26 8,1 C 6,7 C 79 % 1015,9 hPa 0,0 l/m 0 min 0 min 52 W/m 37,7 km/h (5 Bft)
12.01.2015 11:28 8,1 C 6,7 C 79 % 1015,9 hPa 0,0 l/m 0 min 0 min 47 W/m 43,9 km/h (6 Bft)
12.01.2015 11:30 8,1 C 6,7 C 79 % 1016,0 hPa 0,0 l/m 0 min 0 min 50 W/m 33,5 km/h (5 Bft)
12.01.2015 11:32 8,1 C 6,7 C 79 % 1015,9 hPa 0,0 l/m 0 min 0 min 55 W/m 46,0 km/h (6 Bft)
12.01.2015 11:34 8,1 C 6,7 C 79 % 1015,8 hPa 0,0 l/m 0 min 0 min 63 W/m 46,0 km/h (6 Bft)
12.01.2015 11:36 8,1 C 6,7 C 79 % 1015,8 hPa 0,0 l/m 0 min 0 min 56 W/m 46,0 km/h (6 Bft)
12.01.2015 11:38 8,1 C 6,7 C 79 % 1015,6 hPa 0,0 l/m 0 min 0 min 56 W/m 43,9 km/h (6 Bft)
12.01.2015 11:40 8,1 C 6,7 C 79 % 1015,8 hPa 0,0 l/m 0 min 0 min 58 W/m 35,6 km/h (5 Bft)
12.01.2015 11:42 8,1 C 6,7 C 79 % 1015,8 hPa 0,0 l/m 0 min 0 min 59 W/m 35,6 km/h (5 Bft)
12.01.2015 11:44 8,1 C 6,7 C 79 % 1015,6 hPa 0,0 l/m 0 min 0 min 58 W/m 41,8 km/h (6 Bft)
12.01.2015 11:46 8,1 C 6,7 C 79 % 1015,6 hPa 0,0 l/m 0 min 0 min 59 W/m 31,4 km/h (5 Bft)
12.01.2015 11:48 8,1 C 6,7 C 79 % 1015,6 hPa 0,0 l/m 0 min 0 min 54 W/m 27,2 km/h (4 Bft)
12.01.2015 11:50 8,1 C 7,2 C 79 % 1015,6 hPa 0,0 l/m 0 min 0 min 53 W/m 25,1 km/h (4 Bft)
12.01.2015 11:52 8,1 C 6,7 C 79 % 1015,6 hPa 0,0 l/m 0 min 0 min 42 W/m 37,7 km/h (5 Bft)
12.01.2015 11:54 8,1 C 6,7 C 79 % 1015,6 hPa 0,0 l/m 0 min 0 min 42 W/m 50,2 km/h (7 Bft)
12.01.2015 11:56 8,1 C 6,7 C 79 % 1015,6 hPa 0,0 l/m 0 min 0 min 45 W/m 39,7 km/h (6 Bft)
12.01.2015 11:58 8,2 C 6,7 C 79 % 1015,6 hPa 0,0 l/m 0 min 0 min 47 W/m 48,1 km/h (6 Bft)
12.01.2015 12:00 8,2 C 6,7 C 79 % 1015,7 hPa 0,0 l/m 0 min 0 min 42 W/m 41,8 km/h (6 Bft)
12.01.2015 12:03 8,2 C 6,7 C 79 % 1015,5 hPa 0,0 l/m 0 min 0 min 47 W/m 48,1 km/h (6 Bft)
12.01.2015 12:05 8,2 C 7,2 C 79 % 1015,4 hPa 0,0 l/m 0 min 0 min 37 W/m 48,1 km/h (6 Bft)
12.01.2015 12:06 8,2 C 7,2 C 79 % 1015,4 hPa 0,0 l/m 0 min 0 min 37 W/m 48,1 km/h (6 Bft)
12.01.2015 12:10 8,2 C 6,7 C 79 % 1015,4 hPa 0,0 l/m 0 min 0 min 39 W/m 48,1 km/h (6 Bft)
12.01.2015 12:15 8,2 C 7,2 C 79 % 1015,3 hPa 0,0 l/m 0 min 0 min 40 W/m 56,5 km/h (7 Bft)
12.01.2015 12:18 8,3 C 7,2 C 79 % 1015,4 hPa 0,0 l/m 0 min 0 min 41 W/m 27,2 km/h (4 Bft)
12.01.2015 12:20 8,3 C 7,2 C 79 % 1015,5 hPa 0,0 l/m 0 min 0 min 40 W/m 43,9 km/h (6 Bft)
12.01.2015 12:22 8,3 C 7,2 C 79 % 1015,4 hPa 0,0 l/m 0 min 0 min 39 W/m 27,2 km/h (4 Bft)
12.01.2015 12:24 8,3 C 7,2 C 79 % 1015,3 hPa 0,0 l/m 0 min 0 min 34 W/m 39,7 km/h (6 Bft)
12.01.2015 12:26 8,3 C 7,2 C 79 % 1015,2 hPa 0,0 l/m 0 min 0 min 31 W/m 29,3 km/h (5 Bft)
12.01.2015 12:28 8,3 C 6,7 C 79 % 1015,2 hPa 0,0 l/m 0 min 0 min 30 W/m 27,2 km/h (4 Bft)
12.01.2015 12:30 8,3 C 6,7 C 79 % 1015,2 hPa 0,0 l/m 0 min 0 min 32 W/m 35,6 km/h (5 Bft)
12.01.2015 12:32 8,3 C 7,2 C 79 % 1015,2 hPa 0,0 l/m 0 min 0 min 30 W/m 52,3 km/h (7 Bft)
12.01.2015 12:34 8,3 C 7,2 C 79 % 1015,1 hPa 0,0 l/m 0 min 0 min 30 W/m 35,6 km/h (5 Bft)
12.01.2015 12:36 8,3 C 7,2 C 79 % 1015,1 hPa 0,0 l/m 0 min 0 min 30 W/m 39,7 km/h (6 Bft)
12.01.2015 12:38 8,3 C 7,2 C 79 % 1015,1 hPa 0,0 l/m 0 min 0 min 28 W/m 25,1 km/h (4 Bft)
12.01.2015 12:40 8,3 C 6,7 C 79 % 1015,0 hPa 0,0 l/m 0 min 0 min 26 W/m 39,7 km/h (6 Bft)
12.01.2015 12:42 8,3 C 6,7 C 79 % 1014,9 hPa 0,0 l/m 0 min 0 min 28 W/m 31,4 km/h (5 Bft)
12.01.2015 12:44 8,3 C 6,7 C 79 % 1015,0 hPa 0,0 l/m 0 min 0 min 28 W/m 29,3 km/h (5 Bft)
12.01.2015 12:46 8,3 C 7,2 C 79 % 1015,0 hPa 0,0 l/m 0 min 0 min 35 W/m 35,6 km/h (5 Bft)
12.01.2015 12:48 8,3 C 7,2 C 79 % 1014,9 hPa 0,0 l/m 0 min 0 min 40 W/m 50,2 km/h (7 Bft)
12.01.2015 12:50 8,3 C 7,2 C 79 % 1014,8 hPa 0,0 l/m 0 min 0 min 32 W/m 27,2 km/h (4 Bft)
12.01.2015 12:52 8,3 C 7,2 C 79 % 1014,8 hPa 0,0 l/m 0 min 0 min 28 W/m 46,0 km/h (6 Bft)
12.01.2015 12:54 8,3 C 7,2 C 79 % 1015,0 hPa 0,0 l/m 0 min 0 min 30 W/m 39,7 km/h (6 Bft)
12.01.2015 12:56 8,3 C 7,2 C 79 % 1014,8 hPa 0,0 l/m 0 min 0 min 41 W/m 54,4 km/h (7 Bft)
12.01.2015 12:58 8,3 C 7,2 C 79 % 1014,8 hPa 0,0 l/m 0 min 0 min 35 W/m 39,7 km/h (6 Bft)
12.01.2015 13:00 8,3 C 7,2 C 79 % 1014,9 hPa 0,0 l/m 0 min 0 min 37 W/m 43,9 km/h (6 Bft)
12.01.2015 13:02 8,3 C 7,2 C 79 % 1014,8 hPa 0,0 l/m 0 min 0 min 39 W/m 35,6 km/h (5 Bft)
12.01.2015 13:04 8,3 C 7,2 C 79 % 1014,8 hPa 0,0 l/m 0 min 0 min 40 W/m 37,7 km/h (5 Bft)
12.01.2015 13:06 8,4 C 7,2 C 79 % 1014,8 hPa 0,0 l/m 0 min 0 min 40 W/m 50,2 km/h (7 Bft)
12.01.2015 13:08 8,4 C 7,2 C 79 % 1014,7 hPa 0,0 l/m 0 min 0 min 37 W/m 48,1 km/h (6 Bft)
12.01.2015 13:10 8,4 C 7,2 C 79 % 1014,7 hPa 0,0 l/m 0 min 0 min 36 W/m 35,6 km/h (5 Bft)
12.01.2015 13:12 8,4 C 7,2 C 79 % 1014,8 hPa 0,0 l/m 0 min 0 min 33 W/m 54,4 km/h (7 Bft)
12.01.2015 13:14 8,4 C 7,2 C 79 % 1014,6 hPa 0,0 l/m 0 min 0 min 35 W/m 25,1 km/h (4 Bft)
12.01.2015 13:16 8,4 C 7,2 C 80 % 1014,6 hPa 0,0 l/m 0 min 0 min 37 W/m 37,7 km/h (5 Bft)
12.01.2015 13:18 8,4 C 7,2 C 80 % 1014,6 hPa 0,0 l/m 0 min 0 min 38 W/m 35,6 km/h (5 Bft)
12.01.2015 13:20 8,4 C 7,2 C 80 % 1014,6 hPa 0,0 l/m 0 min 0 min 43 W/m 48,1 km/h (6 Bft)
12.01.2015 13:22 8,4 C 7,2 C 80 % 1014,5 hPa 0,0 l/m 0 min 0 min 44 W/m 46,0 km/h (6 Bft)
12.01.2015 13:24 8,4 C 7,2 C 80 % 1014,6 hPa 0,0 l/m 0 min 0 min 40 W/m 46,0 km/h (6 Bft)
12.01.2015 13:26 8,4 C 7,2 C 80 % 1014,6 hPa 0,0 l/m 0 min 0 min 36 W/m 39,7 km/h (6 Bft)
12.01.2015 13:28 8,5 C 7,2 C 80 % 1014,7 hPa 0,0 l/m 0 min 0 min 39 W/m 48,1 km/h (6 Bft)
12.01.2015 13:30 8,5 C 7,2 C 80 % 1014,6 hPa 0,0 l/m 0 min 0 min 34 W/m 31,4 km/h (5 Bft)
12.01.2015 13:32 8,5 C 7,2 C 80 % 1014,6 hPa 0,0 l/m 0 min 0 min 35 W/m 52,3 km/h (7 Bft)
12.01.2015 13:34 8,5 C 7,2 C 80 % 1014,7 hPa 0,0 l/m 0 min 0 min 32 W/m 56,5 km/h (7 Bft)
12.01.2015 13:36 8,5 C 7,2 C 80 % 1014,6 hPa 0,0 l/m 0 min 0 min 32 W/m 50,2 km/h (7 Bft)
12.01.2015 13:38 8,5 C 7,2 C 80 % 1014,6 hPa 0,0 l/m 0 min 0 min 36 W/m 41,8 km/h (6 Bft)
12.01.2015 13:40 8,4 C 7,2 C 81 % 1014,6 hPa 0,0 l/m 0 min 0 min 30 W/m 48,1 km/h (6 Bft)
12.01.2015 13:42 8,4 C 7,2 C 81 % 1014,6 hPa 0,0 l/m 0 min 0 min 28 W/m 35,6 km/h (5 Bft)
12.01.2015 13:44 8,4 C 7,2 C 81 % 1014,6 hPa 0,0 l/m 0 min 0 min 31 W/m 43,9 km/h (6 Bft)
12.01.2015 13:46 8,4 C 7,2 C 81 % 1014,5 hPa 0,0 l/m 0 min 0 min 34 W/m 41,8 km/h (6 Bft)
12.01.2015 13:48 8,4 C 7,2 C 81 % 1014,6 hPa 0,0 l/m 0 min 0 min 37 W/m 37,7 km/h (5 Bft)
12.01.2015 13:50 8,4 C 7,2 C 81 % 1014,5 hPa 0,0 l/m 0 min 0 min 42 W/m 43,9 km/h (6 Bft)
12.01.2015 13:52 8,4 C 7,2 C 81 % 1014,3 hPa 0,0 l/m 0 min 0 min 46 W/m 35,6 km/h (5 Bft)
12.01.2015 13:54 8,4 C 7,2 C 81 % 1014,4 hPa 0,0 l/m 0 min 0 min 41 W/m 37,7 km/h (5 Bft)
12.01.2015 13:56 8,3 C 7,2 C 82 % 1014,3 hPa 0,0 l/m 0 min 0 min 38 W/m 48,1 km/h (6 Bft)
12.01.2015 13:58 8,3 C 7,2 C 81 % 1014,2 hPa 0,0 l/m 0 min 0 min 40 W/m 39,7 km/h (6 Bft)
12.01.2015 14:00 8,3 C 7,2 C 81 % 1014,1 hPa 0,0 l/m 0 min 0 min 40 W/m 46,0 km/h (6 Bft)
12.01.2015 14:02 8,3 C 7,2 C 81 % 1014,1 hPa 0,0 l/m 0 min 0 min 38 W/m 31,4 km/h (5 Bft)
12.01.2015 14:04 8,3 C 7,2 C 81 % 1014,1 hPa 0,0 l/m 0 min 0 min 37 W/m 43,9 km/h (6 Bft)
12.01.2015 14:06 8,3 C 7,2 C 81 % 1014,1 hPa 0,0 l/m 0 min 0 min 40 W/m 39,7 km/h (6 Bft)
12.01.2015 14:08 8,3 C 7,2 C 81 % 1014,0 hPa 0,0 l/m 0 min 0 min 39 W/m 35,6 km/h (5 Bft)
12.01.2015 14:10 8,4 C 7,2 C 81 % 1014,2 hPa 0,0 l/m 0 min 0 min 40 W/m 37,7 km/h (5 Bft)
12.01.2015 14:12 8,4 C 7,2 C 81 % 1014,0 hPa 0,0 l/m 0 min 0 min 39 W/m 33,5 km/h (5 Bft)
12.01.2015 14:14 8,4 C 7,2 C 81 % 1014,0 hPa 0,0 l/m 0 min 0 min 33 W/m 31,4 km/h (5 Bft)
12.01.2015 14:16 8,4 C 7,2 C 81 % 1013,9 hPa 0,0 l/m 0 min 0 min 35 W/m 31,4 km/h (5 Bft)
12.01.2015 14:18 8,4 C 7,2 C 81 % 1013,8 hPa 0,0 l/m 0 min 0 min 40 W/m 48,1 km/h (6 Bft)
12.01.2015 14:20 8,4 C 7,2 C 81 % 1013,8 hPa 0,0 l/m 0 min 0 min 44 W/m 46,0 km/h (6 Bft)
12.01.2015 14:22 8,4 C 7,2 C 81 % 1013,8 hPa 0,0 l/m 0 min 0 min 40 W/m 58,6 km/h (7 Bft)
12.01.2015 14:24 8,4 C 7,2 C 81 % 1013,9 hPa 0,0 l/m 0 min 0 min 33 W/m 31,4 km/h (5 Bft)
12.01.2015 14:26 8,4 C 7,2 C 81 % 1013,8 hPa 0,0 l/m 0 min 0 min 36 W/m 31,4 km/h (5 Bft)
12.01.2015 14:28 8,4 C 7,2 C 81 % 1013,9 hPa 0,0 l/m 0 min 0 min 38 W/m 31,4 km/h (5 Bft)
12.01.2015 14:30 8,5 C 7,2 C 81 % 1013,8 hPa 0,0 l/m 0 min 0 min 33 W/m 37,7 km/h (5 Bft)
12.01.2015 14:32 8,5 C 7,2 C 81 % 1013,8 hPa 0,0 l/m 0 min 0 min 34 W/m 39,7 km/h (6 Bft)
12.01.2015 14:34 8,5 C 7,2 C 81 % 1013,9 hPa 0,0 l/m 0 min 0 min 35 W/m 39,7 km/h (6 Bft)
12.01.2015 14:36 8,5 C 7,2 C 81 % 1014,0 hPa 0,0 l/m 0 min 0 min 33 W/m 37,7 km/h (5 Bft)
12.01.2015 14:38 8,5 C 7,2 C 81 % 1013,9 hPa 0,0 l/m 0 min 0 min 36 W/m 39,7 km/h (6 Bft)
12.01.2015 14:40 8,6 C 7,2 C 81 % 1013,8 hPa 0,0 l/m 0 min 0 min 36 W/m 37,7 km/h (5 Bft)
12.01.2015 14:42 8,6 C 7,2 C 81 % 1013,9 hPa 0,0 l/m 0 min 0 min 31 W/m 35,6 km/h (5 Bft)
12.01.2015 14:44 8,6 C 7,2 C 81 % 1013,9 hPa 0,0 l/m 0 min 0 min 38 W/m 43,9 km/h (6 Bft)
12.01.2015 14:46 8,6 C 7,2 C 81 % 1013,8 hPa 0,0 l/m 0 min 0 min 36 W/m 39,7 km/h (6 Bft)
12.01.2015 14:48 8,6 C 7,2 C 81 % 1013,8 hPa 0,0 l/m 0 min 0 min 39 W/m 39,7 km/h (6 Bft)
12.01.2015 14:50 8,6 C 7,2 C 81 % 1013,7 hPa 0,0 l/m 0 min 0 min 34 W/m 41,8 km/h (6 Bft)
12.01.2015 14:52 8,6 C 7,2 C 81 % 1013,7 hPa 0,0 l/m 0 min 0 min 35 W/m 41,8 km/h (6 Bft)
12.01.2015 14:54 8,7 C 7,2 C 81 % 1013,7 hPa 0,0 l/m 0 min 0 min 45 W/m 50,2 km/h (7 Bft)
12.01.2015 14:56 8,7 C 7,2 C 81 % 1013,6 hPa 0,0 l/m 0 min 0 min 42 W/m 46,0 km/h (6 Bft)
12.01.2015 14:58 8,7 C 7,2 C 81 % 1013,6 hPa 0,0 l/m 0 min 0 min 35 W/m 33,5 km/h (5 Bft)
12.01.2015 15:00 8,7 C 7,2 C 81 % 1013,6 hPa 0,0 l/m 0 min 0 min 30 W/m 35,6 km/h (5 Bft)
12.01.2015 15:02 8,7 C 7,2 C 81 % 1013,6 hPa 0,0 l/m 0 min 0 min 33 W/m 39,7 km/h (6 Bft)
12.01.2015 15:04 8,7 C 7,2 C 81 % 1013,6 hPa 0,0 l/m 0 min 0 min 41 W/m 41,8 km/h (6 Bft)
12.01.2015 15:06 8,7 C 7,2 C 81 % 1013,5 hPa 0,0 l/m 0 min 0 min 46 W/m 31,4 km/h (5 Bft)
12.01.2015 15:08 8,7 C 7,2 C 81 % 1013,5 hPa 0,0 l/m 0 min 0 min 41 W/m 37,7 km/h (5 Bft)
12.01.2015 15:10 8,7 C 7,2 C 81 % 1013,5 hPa 0,0 l/m 0 min 0 min 39 W/m 31,4 km/h (5 Bft)
12.01.2015 15:12 8,7 C 7,2 C 81 % 1013,5 hPa 0,0 l/m 0 min 0 min 36 W/m 39,7 km/h (6 Bft)
12.01.2015 15:14 8,7 C 7,2 C 81 % 1013,6 hPa 0,0 l/m 0 min 0 min 33 W/m 29,3 km/h (5 Bft)
12.01.2015 15:16 8,7 C 7,2 C 81 % 1013,6 hPa 0,0 l/m 0 min 0 min 31 W/m 39,7 km/h (6 Bft)
12.01.2015 15:18 8,7 C 7,2 C 81 % 1013,5 hPa 0,0 l/m 0 min 0 min 25 W/m 37,7 km/h (5 Bft)
12.01.2015 15:20 8,8 C 7,2 C 81 % 1013,6 hPa 0,0 l/m 0 min 0 min 23 W/m 48,1 km/h (6 Bft)
12.01.2015 15:22 8,8 C 7,2 C 81 % 1013,6 hPa 0,0 l/m 0 min 0 min 24 W/m 43,9 km/h (6 Bft)
12.01.2015 15:24 8,8 C 7,2 C 81 % 1013,6 hPa 0,0 l/m 0 min 0 min 25 W/m 39,7 km/h (6 Bft)
12.01.2015 15:26 8,8 C 7,2 C 81 % 1013,6 hPa 0,0 l/m 0 min 0 min 19 W/m 37,7 km/h (5 Bft)
12.01.2015 15:28 8,8 C 7,2 C 81 % 1013,6 hPa 0,0 l/m 0 min 0 min 19 W/m 37,7 km/h (5 Bft)
12.01.2015 15:30 8,8 C 7,2 C 81 % 1013,7 hPa 0,0 l/m 0 min 0 min 19 W/m 37,7 km/h (5 Bft)
12.01.2015 15:32 8,8 C 7,2 C 81 % 1013,7 hPa 0,0 l/m 0 min 0 min 21 W/m 33,5 km/h (5 Bft)
12.01.2015 15:34 8,8 C 7,2 C 81 % 1013,7 hPa 0,0 l/m 0 min 0 min 17 W/m 33,5 km/h (5 Bft)
12.01.2015 15:36 8,8 C 7,2 C 81 % 1013,7 hPa 0,0 l/m 0 min 0 min 20 W/m 35,6 km/h (5 Bft)
12.01.2015 15:38 8,8 C 7,2 C 81 % 1013,7 hPa 0,0 l/m 0 min 0 min 24 W/m 52,3 km/h (7 Bft)
12.01.2015 15:40 8,8 C 7,2 C 81 % 1013,6 hPa 0,0 l/m 0 min 0 min 23 W/m 46,0 km/h (6 Bft)
12.01.2015 15:42 8,8 C 7,2 C 81 % 1013,6 hPa 0,0 l/m 0 min 0 min 20 W/m 46,0 km/h (6 Bft)
12.01.2015 15:44 8,8 C 7,2 C 81 % 1013,6 hPa 0,0 l/m 0 min 0 min 25 W/m 43,9 km/h (6 Bft)
12.01.2015 15:46 8,8 C 7,2 C 81 % 1013,5 hPa 0,0 l/m 0 min 0 min 21 W/m 27,2 km/h (4 Bft)
12.01.2015 15:48 8,8 C 7,2 C 81 % 1013,6 hPa 0,0 l/m 0 min 0 min 13 W/m 43,9 km/h (6 Bft)
12.01.2015 15:50 8,8 C 7,2 C 81 % 1013,7 hPa 0,0 l/m 0 min 0 min 14 W/m 31,4 km/h (5 Bft)
12.01.2015 15:52 8,8 C 7,2 C 81 % 1013,7 hPa 0,0 l/m 0 min 0 min 12 W/m 48,1 km/h (6 Bft)
12.01.2015 15:54 8,8 C 7,2 C 81 % 1013,7 hPa 0,0 l/m 0 min 0 min 12 W/m 41,8 km/h (6 Bft)
12.01.2015 15:56 8,8 C 7,2 C 81 % 1013,6 hPa 0,0 l/m 0 min 0 min 11 W/m 39,7 km/h (6 Bft)
12.01.2015 15:58 8,8 C 7,2 C 81 % 1013,8 hPa 0,0 l/m 0 min 0 min 11 W/m 33,5 km/h (5 Bft)
12.01.2015 16:00 8,8 C 7,2 C 81 % 1013,7 hPa 0,0 l/m 0 min 0 min 11 W/m 27,2 km/h (4 Bft)
12.01.2015 16:02 8,7 C 7,2 C 81 % 1013,7 hPa 0,0 l/m 0 min 0 min 12 W/m 37,7 km/h (5 Bft)
12.01.2015 16:04 8,7 C 7,2 C 81 % 1013,6 hPa 0,0 l/m 0 min 0 min 11 W/m 27,2 km/h (4 Bft)
12.01.2015 16:06 8,7 C 7,2 C 81 % 1013,7 hPa 0,0 l/m 0 min 0 min 11 W/m 33,5 km/h (5 Bft)
12.01.2015 16:08 8,7 C 7,2 C 81 % 1013,8 hPa 0,0 l/m 0 min 0 min 9 W/m 37,7 km/h (5 Bft)
12.01.2015 16:10 8,7 C 7,2 C 81 % 1013,7 hPa 0,0 l/m 0 min 0 min 11 W/m 43,9 km/h (6 Bft)
12.01.2015 16:12 8,7 C 7,2 C 82 % 1013,6 hPa 0,0 l/m 0 min 0 min 12 W/m 43,9 km/h (6 Bft)
12.01.2015 16:14 8,7 C 7,2 C 82 % 1013,7 hPa 0,0 l/m 0 min 0 min 12 W/m 39,7 km/h (6 Bft)
12.01.2015 16:16 8,7 C 7,2 C 82 % 1013,7 hPa 0,0 l/m 0 min 0 min 12 W/m 35,6 km/h (5 Bft)
12.01.2015 16:18 8,7 C 7,2 C 82 % 1013,6 hPa 0,0 l/m 0 min 0 min 12 W/m 41,8 km/h (6 Bft)
12.01.2015 16:20 8,7 C 7,2 C 82 % 1013,6 hPa 0,0 l/m 0 min 0 min 12 W/m 27,2 km/h (4 Bft)
12.01.2015 16:22 8,7 C 7,2 C 82 % 1013,6 hPa 0,0 l/m 0 min 0 min 12 W/m 37,7 km/h (5 Bft)
12.01.2015 16:24 8,7 C 7,2 C 82 % 1013,6 hPa 0,0 l/m 0 min 0 min 12 W/m 43,9 km/h (6 Bft)
12.01.2015 16:26 8,7 C 7,2 C 82 % 1013,6 hPa 0,0 l/m 0 min 0 min 10 W/m 33,5 km/h (5 Bft)
12.01.2015 16:28 8,7 C 7,2 C 82 % 1013,6 hPa 0,0 l/m 0 min 0 min 10 W/m 37,7 km/h (5 Bft)
12.01.2015 16:30 8,7 C 7,2 C 82 % 1013,6 hPa 0,0 l/m 0 min 0 min 10 W/m 41,8 km/h (6 Bft)
12.01.2015 16:32 8,7 C 7,2 C 82 % 1013,7 hPa 0,0 l/m 0 min 0 min 8 W/m 31,4 km/h (5 Bft)
12.01.2015 16:34 8,7 C 7,2 C 82 % 1013,6 hPa 0,0 l/m 0 min 0 min 7 W/m 43,9 km/h (6 Bft)
12.01.2015 16:36 8,7 C 7,2 C 82 % 1013,6 hPa 0,0 l/m 0 min 0 min 7 W/m 39,7 km/h (6 Bft)
12.01.2015 16:38 8,7 C 7,2 C 82 % 1013,5 hPa 0,0 l/m 0 min 0 min 6 W/m 35,6 km/h (5 Bft)
12.01.2015 16:40 8,7 C 7,2 C 82 % 1013,7 hPa 0,0 l/m 0 min 0 min 5 W/m 39,7 km/h (6 Bft)
12.01.2015 16:42 8,7 C 7,2 C 82 % 1013,6 hPa 0,0 l/m 0 min 0 min 5 W/m 43,9 km/h (6 Bft)
12.01.2015 16:44 8,7 C 7,2 C 82 % 1013,7 hPa 0,0 l/m 0 min 0 min 0 W/m 43,9 km/h (6 Bft)
12.01.2015 16:46 8,7 C 7,2 C 82 % 1013,6 hPa 0,0 l/m 0 min 0 min 0 W/m 39,7 km/h (6 Bft)
12.01.2015 16:48 8,7 C 7,2 C 82 % 1013,6 hPa 0,0 l/m 0 min 0 min 0 W/m 37,7 km/h (5 Bft)
12.01.2015 16:50 8,7 C 7,2 C 82 % 1013,7 hPa 0,0 l/m 0 min 0 min 0 W/m 52,3 km/h (7 Bft)
12.01.2015 16:52 8,7 C 7,2 C 82 % 1013,8 hPa 0,0 l/m 0 min 0 min 0 W/m 43,9 km/h (6 Bft)
12.01.2015 16:54 8,8 C 7,2 C 82 % 1013,7 hPa 0,0 l/m 0 min 0 min 0 W/m 37,7 km/h (5 Bft)
12.01.2015 16:56 8,7 C 7,2 C 82 % 1013,7 hPa 0,0 l/m 0 min 0 min 0 W/m 33,5 km/h (5 Bft)
12.01.2015 16:58 8,7 C 7,2 C 82 % 1013,7 hPa 0,0 l/m 0 min 0 min 0 W/m 41,8 km/h (6 Bft)
12.01.2015 17:00 8,7 C 7,2 C 82 % 1013,7 hPa 0,0 l/m 0 min 0 min 0 W/m 27,2 km/h (4 Bft)
12.01.2015 17:02 8,7 C 7,2 C 82 % 1013,6 hPa 0,0 l/m 0 min 0 min 0 W/m 25,1 km/h (4 Bft)
12.01.2015 17:04 8,7 C 7,2 C 82 % 1013,6 hPa 0,0 l/m 0 min 0 min 0 W/m 33,5 km/h (5 Bft)
12.01.2015 17:06 8,7 C 7,2 C 82 % 1013,7 hPa 0,0 l/m 0 min 0 min 0 W/m 33,5 km/h (5 Bft)
12.01.2015 17:08 8,7 C 7,2 C 82 % 1013,7 hPa 0,0 l/m 0 min 0 min 0 W/m 29,3 km/h (5 Bft)
12.01.2015 17:10 8,7 C 7,2 C 82 % 1013,6 hPa 0,0 l/m 0 min 0 min 0 W/m 27,2 km/h (4 Bft)
12.01.2015 17:12 8,7 C 7,2 C 82 % 1013,6 hPa 0,0 l/m 0 min 0 min 0 W/m 39,7 km/h (6 Bft)
12.01.2015 17:14 8,7 C 7,2 C 82 % 1013,7 hPa 0,0 l/m 0 min 0 min 0 W/m 41,8 km/h (6 Bft)
12.01.2015 17:16 8,7 C 7,2 C 82 % 1013,7 hPa 0,0 l/m 0 min 0 min 0 W/m 33,5 km/h (5 Bft)
12.01.2015 17:18 8,7 C 7,2 C 82 % 1013,6 hPa 0,0 l/m 0 min 0 min 0 W/m 20,9 km/h (4 Bft)
12.01.2015 17:20 8,7 C 7,2 C 82 % 1013,6 hPa 0,0 l/m 0 min 0 min 0 W/m 23,0 km/h (4 Bft)
12.01.2015 17:22 8,7 C 7,2 C 82 % 1013,7 hPa 0,0 l/m 0 min 0 min 0 W/m 29,3 km/h (5 Bft)
12.01.2015 17:24 8,7 C 7,2 C 82 % 1013,6 hPa 0,0 l/m 0 min 0 min 0 W/m 46,0 km/h (6 Bft)
12.01.2015 17:26 8,7 C 7,2 C 82 % 1013,7 hPa 0,0 l/m 0 min 0 min 0 W/m 31,4 km/h (5 Bft)
12.01.2015 17:28 8,7 C 7,2 C 82 % 1013,6 hPa 0,0 l/m 0 min 0 min 0 W/m 35,6 km/h (5 Bft)
12.01.2015 17:30 8,7 C 7,2 C 82 % 1013,6 hPa 0,0 l/m 0 min 0 min 0 W/m 37,7 km/h (5 Bft)
12.01.2015 17:32 8,7 C 7,2 C 82 % 1013,7 hPa 0,0 l/m 0 min 0 min 0 W/m 41,8 km/h (6 Bft)
12.01.2015 17:34 8,7 C 7,2 C 82 % 1013,6 hPa 0,0 l/m 0 min 0 min 0 W/m 39,7 km/h (6 Bft)
12.01.2015 17:36 8,7 C 7,2 C 82 % 1013,6 hPa 0,0 l/m 0 min 0 min 0 W/m 29,3 km/h (5 Bft)
12.01.2015 17:38 8,7 C 7,2 C 82 % 1013,6 hPa 0,0 l/m 0 min 0 min 0 W/m 27,2 km/h (4 Bft)
12.01.2015 17:40 8,7 C 7,2 C 82 % 1013,6 hPa 0,0 l/m 0 min 0 min 0 W/m 52,3 km/h (7 Bft)
12.01.2015 17:42 8,7 C 7,2 C 82 % 1013,7 hPa 0,0 l/m 0 min 0 min 0 W/m 35,6 km/h (5 Bft)
12.01.2015 17:44 8,7 C 7,2 C 83 % 1013,6 hPa 0,0 l/m 0 min 0 min 0 W/m 41,8 km/h (6 Bft)
12.01.2015 17:46 8,7 C 7,2 C 82 % 1013,6 hPa 0,0 l/m 0 min 0 min 0 W/m 33,5 km/h (5 Bft)
12.01.2015 17:48 8,7 C 7,2 C 82 % 1013,6 hPa 0,0 l/m 0 min 0 min 0 W/m 25,1 km/h (4 Bft)
12.01.2015 17:50 8,7 C 7,2 C 83 % 1013,6 hPa 0,0 l/m 0 min 0 min 0 W/m 23,0 km/h (4 Bft)
12.01.2015 17:52 8,8 C 7,2 C 83 % 1013,6 hPa 0,0 l/m 0 min 0 min 0 W/m 33,5 km/h (5 Bft)
12.01.2015 17:54 8,8 C 7,2 C 83 % 1013,7 hPa 0,0 l/m 0 min 0 min 0 W/m 27,2 km/h (4 Bft)
12.01.2015 17:56 8,7 C 7,2 C 83 % 1013,5 hPa 0,0 l/m 0 min 0 min 0 W/m 29,3 km/h (5 Bft)
12.01.2015 17:58 8,8 C 7,2 C 83 % 1013,5 hPa 0,0 l/m 0 min 0 min 0 W/m 35,6 km/h (5 Bft)
12.01.2015 18:00 8,7 C 7,2 C 83 % 1013,6 hPa 0,0 l/m 0 min 0 min 0 W/m 23,0 km/h (4 Bft)
12.01.2015 18:03 8,7 C 7,2 C 83 % 1013,5 hPa 0,0 l/m 0 min 0 min 0 W/m 31,4 km/h (5 Bft)
12.01.2015 18:05 8,7 C 7,2 C 83 % 1013,5 hPa 0,0 l/m 0 min 0 min 0 W/m 31,4 km/h (5 Bft)
12.01.2015 18:10 8,7 C 7,2 C 83 % 1013,5 hPa 0,0 l/m 0 min 0 min 0 W/m 39,7 km/h (6 Bft)
12.01.2015 18:15 8,6 C 7,2 C 83 % 1013,5 hPa 0,0 l/m 0 min 0 min 0 W/m 39,7 km/h (6 Bft)
12.01.2015 18:16 8,6 C 7,2 C 83 % 1013,5 hPa 0,0 l/m 0 min 0 min 0 W/m 37,7 km/h (5 Bft)
12.01.2015 18:20 8,6 C 7,2 C 83 % 1013,6 hPa 0,0 l/m 0 min 0 min 0 W/m 37,7 km/h (5 Bft)
12.01.2015 18:22 8,6 C 7,2 C 83 % 1013,6 hPa 0,0 l/m 0 min 0 min 0 W/m 56,5 km/h (7 Bft)
12.01.2015 18:24 8,6 C 6,7 C 84 % 1013,5 hPa 0,0 l/m 0 min 0 min 0 W/m 39,7 km/h (6 Bft)
12.01.2015 18:26 8,6 C 6,7 C 84 % 1013,5 hPa 0,0 l/m 0 min 0 min 0 W/m 25,1 km/h (4 Bft)
12.01.2015 18:28 8,5 C 6,7 C 84 % 1013,5 hPa 0,0 l/m 0 min 0 min 0 W/m 27,2 km/h (4 Bft)
12.01.2015 18:30 8,5 C 6,7 C 84 % 1013,6 hPa 0,0 l/m 0 min 0 min 0 W/m 31,4 km/h (5 Bft)
12.01.2015 18:32 8,4 C 6,7 C 85 % 1013,6 hPa 0,0 l/m 0 min 0 min 0 W/m 41,8 km/h (6 Bft)
12.01.2015 18:34 8,4 C 6,7 C 85 % 1013,6 hPa 0,0 l/m 0 min 0 min 0 W/m 39,7 km/h (6 Bft)
12.01.2015 18:36 8,3 C 6,7 C 85 % 1013,5 hPa 0,0 l/m 0 min 0 min 0 W/m 41,8 km/h (6 Bft)
12.01.2015 18:38 8,3 C 6,7 C 85 % 1013,5 hPa 0,0 l/m 0 min 0 min 0 W/m 35,6 km/h (5 Bft)
12.01.2015 18:40 8,3 C 6,7 C 85 % 1013,5 hPa 0,0 l/m 0 min 0 min 0 W/m 37,7 km/h (5 Bft)
12.01.2015 18:42 8,3 C 6,7 C 85 % 1013,5 hPa 0,0 l/m 0 min 0 min 0 W/m 31,4 km/h (5 Bft)
12.01.2015 18:44 8,3 C 6,7 C 86 % 1013,4 hPa 0,0 l/m 0 min 0 min 0 W/m 29,3 km/h (5 Bft)
12.01.2015 18:46 8,2 C 6,7 C 86 % 1013,4 hPa 0,0 l/m 0 min 0 min 0 W/m 33,5 km/h (5 Bft)
12.01.2015 18:48 8,2 C 6,7 C 86 % 1013,4 hPa 0,0 l/m 0 min 0 min 0 W/m 33,5 km/h (5 Bft)
12.01.2015 18:50 8,2 C 6,7 C 86 % 1013,4 hPa 0,0 l/m 0 min 0 min 0 W/m 20,9 km/h (4 Bft)
12.01.2015 18:52 8,2 C 6,7 C 86 % 1013,4 hPa 0,0 l/m 0 min 0 min 0 W/m 25,1 km/h (4 Bft)
12.01.2015 18:54 8,2 C 6,7 C 86 % 1013,3 hPa 0,0 l/m 0 min 0 min 0 W/m 37,7 km/h (5 Bft)
12.01.2015 18:56 8,2 C 6,7 C 86 % 1013,3 hPa 0,0 l/m 0 min 0 min 0 W/m 33,5 km/h (5 Bft)
12.01.2015 18:58 8,2 C 6,7 C 86 % 1013,4 hPa 0,0 l/m 0 min 0 min 0 W/m 29,3 km/h (5 Bft)
12.01.2015 19:00 8,2 C 6,7 C 86 % 1013,4 hPa 0,0 l/m 0 min 0 min 0 W/m 41,8 km/h (6 Bft)
12.01.2015 19:02 8,2 C 7,2 C 86 % 1013,3 hPa 0,0 l/m 0 min 0 min 0 W/m 29,3 km/h (5 Bft)
12.01.2015 19:04 8,2 C 7,2 C 86 % 1013,3 hPa 0,0 l/m 0 min 0 min 0 W/m 33,5 km/h (5 Bft)
12.01.2015 19:06 8,2 C 7,2 C 86 % 1013,2 hPa 0,0 l/m 0 min 0 min 0 W/m 31,4 km/h (5 Bft)
12.01.2015 19:08 8,2 C 6,7 C 86 % 1013,1 hPa 0,0 l/m 0 min 0 min 0 W/m 52,3 km/h (7 Bft)
12.01.2015 19:10 8,3 C 6,7 C 86 % 1013,1 hPa 0,0 l/m 0 min 0 min 0 W/m 43,9 km/h (6 Bft)
12.01.2015 19:12 8,3 C 6,7 C 87 % 1013,3 hPa 0,0 l/m 0 min 0 min 0 W/m 33,5 km/h (5 Bft)
12.01.2015 19:14 8,3 C 6,7 C 87 % 1013,2 hPa 0,0 l/m 0 min 0 min 0 W/m 29,3 km/h (5 Bft)
12.01.2015 19:16 8,3 C 6,7 C 87 % 1013,3 hPa 0,0 l/m 0 min 0 min 0 W/m 43,9 km/h (6 Bft)
12.01.2015 19:18 8,2 C 6,7 C 87 % 1013,2 hPa 0,0 l/m 0 min 0 min 0 W/m 37,7 km/h (5 Bft)
12.01.2015 19:20 8,2 C 6,7 C 87 % 1013,2 hPa 0,0 l/m 0 min 0 min 0 W/m 41,8 km/h (6 Bft)
12.01.2015 19:22 8,3 C 6,7 C 87 % 1013,2 hPa 0,0 l/m 0 min 0 min 0 W/m 29,3 km/h (5 Bft)
12.01.2015 19:24 8,2 C 6,7 C 87 % 1013,3 hPa 0,0 l/m 0 min 0 min 0 W/m 31,4 km/h (5 Bft)
12.01.2015 19:26 8,3 C 7,2 C 87 % 1013,2 hPa 0,0 l/m 0 min 0 min 0 W/m 39,7 km/h (6 Bft)
12.01.2015 19:28 8,3 C 7,2 C 87 % 1013,4 hPa 0,0 l/m 0 min 0 min 0 W/m 35,6 km/h (5 Bft)
12.01.2015 19:30 8,3 C 7,2 C 87 % 1013,3 hPa 0,0 l/m 0 min 0 min 0 W/m 31,4 km/h (5 Bft)
12.01.2015 19:32 8,3 C 7,2 C 87 % 1013,2 hPa 0,0 l/m 0 min 0 min 0 W/m 25,1 km/h (4 Bft)
12.01.2015 19:34 8,3 C 7,2 C 87 % 1013,1 hPa 0,0 l/m 0 min 0 min 0 W/m 37,7 km/h (5 Bft)
12.01.2015 19:36 8,3 C 7,2 C 87 % 1013,1 hPa 0,0 l/m 0 min 0 min 0 W/m 29,3 km/h (5 Bft)
12.01.2015 19:38 8,3 C 7,2 C 87 % 1013,0 hPa 0,0 l/m 0 min 0 min 0 W/m 35,6 km/h (5 Bft)
12.01.2015 19:40 8,4 C 7,2 C 87 % 1013,2 hPa 0,0 l/m 0 min 0 min 0 W/m 31,4 km/h (5 Bft)
12.01.2015 19:42 8,4 C 7,2 C 87 % 1013,2 hPa 0,0 l/m 0 min 0 min 0 W/m 33,5 km/h (5 Bft)
12.01.2015 19:44 8,4 C 7,2 C 87 % 1013,1 hPa 0,0 l/m 0 min 0 min 0 W/m 39,7 km/h (6 Bft)
12.01.2015 19:46 8,4 C 7,2 C 87 % 1013,1 hPa 0,0 l/m 0 min 0 min 0 W/m 39,7 km/h (6 Bft)
12.01.2015 19:48 8,5 C 7,2 C 86 % 1012,8 hPa 0,0 l/m 0 min 0 min 0 W/m 23,0 km/h (4 Bft)
12.01.2015 19:50 8,5 C 7,2 C 86 % 1012,8 hPa 0,0 l/m 0 min 0 min 0 W/m 29,3 km/h (5 Bft)
12.01.2015 19:52 8,5 C 7,2 C 86 % 1012,8 hPa 0,0 l/m 0 min 0 min 0 W/m 31,4 km/h (5 Bft)
12.01.2015 19:54 8,6 C 7,2 C 86 % 1012,8 hPa 0,0 l/m 0 min 0 min 0 W/m 41,8 km/h (6 Bft)
12.01.2015 19:56 8,6 C 7,2 C 86 % 1013,0 hPa 0,0 l/m 0 min 0 min 0 W/m 50,2 km/h (7 Bft)
12.01.2015 19:58 8,6 C 7,2 C 86 % 1012,9 hPa 0,0 l/m 0 min 0 min 0 W/m 35,6 km/h (5 Bft)
12.01.2015 20:00 8,7 C 7,2 C 86 % 1013,0 hPa 0,0 l/m 0 min 0 min 0 W/m 35,6 km/h (5 Bft)
12.01.2015 20:02 8,7 C 7,2 C 86 % 1013,0 hPa 0,0 l/m 0 min 0 min 0 W/m 37,7 km/h (5 Bft)
12.01.2015 20:04 8,7 C 7,8 C 86 % 1013,0 hPa 0,0 l/m 0 min 0 min 0 W/m 37,7 km/h (5 Bft)
12.01.2015 20:06 8,7 C 7,8 C 86 % 1013,0 hPa 0,0 l/m 0 min 0 min 0 W/m 39,7 km/h (6 Bft)
12.01.2015 20:08 8,8 C 7,8 C 85 % 1013,0 hPa 0,0 l/m 0 min 0 min 0 W/m 35,6 km/h (5 Bft)
12.01.2015 20:10 8,8 C 7,8 C 85 % 1012,9 hPa 0,0 l/m 0 min 0 min 0 W/m 41,8 km/h (6 Bft)
12.01.2015 20:12 8,8 C 7,8 C 85 % 1012,8 hPa 0,0 l/m 0 min 0 min 0 W/m 41,8 km/h (6 Bft)
12.01.2015 20:14 8,8 C 7,8 C 85 % 1012,8 hPa 0,0 l/m 0 min 0 min 0 W/m 37,7 km/h (5 Bft)
12.01.2015 20:16 8,8 C 7,8 C 85 % 1012,8 hPa 0,0 l/m 0 min 0 min 0 W/m 29,3 km/h (5 Bft)
12.01.2015 20:18 8,9 C 7,8 C 85 % 1013,0 hPa 0,0 l/m 0 min 0 min 0 W/m 41,8 km/h (6 Bft)
12.01.2015 20:20 8,9 C 7,8 C 85 % 1013,1 hPa 0,0 l/m 0 min 0 min 0 W/m 37,7 km/h (5 Bft)
12.01.2015 20:22 8,9 C 7,8 C 85 % 1012,8 hPa 0,0 l/m 0 min 0 min 0 W/m 33,5 km/h (5 Bft)
12.01.2015 20:24 8,9 C 7,8 C 85 % 1012,9 hPa 0,0 l/m 0 min 0 min 0 W/m 43,9 km/h (6 Bft)
12.01.2015 20:26 8,9 C 7,8 C 85 % 1012,9 hPa 0,0 l/m 0 min 0 min 0 W/m 39,7 km/h (6 Bft)
12.01.2015 20:28 9,0 C 7,8 C 85 % 1012,9 hPa 0,0 l/m 0 min 0 min 0 W/m 23,0 km/h (4 Bft)
12.01.2015 20:30 9,0 C 7,8 C 84 % 1012,8 hPa 0,0 l/m 0 min 0 min 0 W/m 41,8 km/h (6 Bft)
12.01.2015 20:32 9,0 C 7,8 C 84 % 1012,9 hPa 0,0 l/m 0 min 0 min 0 W/m 41,8 km/h (6 Bft)
12.01.2015 20:34 9,0 C 7,8 C 84 % 1012,9 hPa 0,0 l/m 0 min 0 min 0 W/m 31,4 km/h (5 Bft)
12.01.2015 20:36 9,0 C 7,8 C 84 % 1013,1 hPa 0,0 l/m 0 min 0 min 0 W/m 41,8 km/h (6 Bft)
12.01.2015 20:38 9,0 C 7,8 C 84 % 1012,9 hPa 0,0 l/m 0 min 0 min 0 W/m 52,3 km/h (7 Bft)
12.01.2015 20:40 9,0 C 7,8 C 84 % 1012,8 hPa 0,0 l/m 0 min 0 min 0 W/m 43,9 km/h (6 Bft)
12.01.2015 20:42 9,0 C 7,8 C 84 % 1012,7 hPa 0,0 l/m 0 min 0 min 0 W/m 27,2 km/h (4 Bft)
12.01.2015 20:44 9,0 C 7,8 C 84 % 1012,8 hPa 0,0 l/m 0 min 0 min 0 W/m 41,8 km/h (6 Bft)
12.01.2015 20:46 9,0 C 7,8 C 84 % 1012,8 hPa 0,0 l/m 0 min 0 min 0 W/m 37,7 km/h (5 Bft)
12.01.2015 20:48 9,0 C 7,8 C 84 % 1012,7 hPa 0,0 l/m 0 min 0 min 0 W/m 41,8 km/h (6 Bft)
12.01.2015 20:50 9,0 C 7,8 C 84 % 1012,7 hPa 0,0 l/m 0 min 0 min 0 W/m 39,7 km/h (6 Bft)
12.01.2015 20:52 9,0 C 7,8 C 84 % 1012,7 hPa 0,0 l/m 0 min 0 min 0 W/m 31,4 km/h (5 Bft)
12.01.2015 20:54 9,0 C 7,8 C 84 % 1012,6 hPa 0,0 l/m 0 min 0 min 0 W/m 39,7 km/h (6 Bft)
12.01.2015 20:56 9,0 C 7,8 C 85 % 1012,7 hPa 0,0 l/m 0 min 0 min 0 W/m 46,0 km/h (6 Bft)
12.01.2015 20:58 9,0 C 7,8 C 85 % 1012,6 hPa 0,0 l/m 0 min 0 min 0 W/m 46,0 km/h (6 Bft)
12.01.2015 21:00 9,0 C 7,8 C 85 % 1012,6 hPa 0,0 l/m 0 min 0 min 0 W/m 46,0 km/h (6 Bft)
12.01.2015 21:02 9,0 C 7,8 C 85 % 1012,6 hPa 0,0 l/m 0 min 0 min 0 W/m 35,6 km/h (5 Bft)
12.01.2015 21:04 9,0 C 7,8 C 85 % 1012,6 hPa 0,0 l/m 0 min 0 min 0 W/m 43,9 km/h (6 Bft)
12.01.2015 21:06 9,0 C 7,8 C 85 % 1012,7 hPa 0,0 l/m 0 min 0 min 0 W/m 48,1 km/h (6 Bft)
12.01.2015 21:08 9,0 C 7,8 C 85 % 1012,6 hPa 0,0 l/m 0 min 0 min 0 W/m 33,5 km/h (5 Bft)
12.01.2015 21:10 9,0 C 7,8 C 85 % 1012,6 hPa 0,0 l/m 0 min 0 min 0 W/m 25,1 km/h (4 Bft)
12.01.2015 21:12 9,0 C 7,8 C 85 % 1012,6 hPa 0,0 l/m 0 min 0 min 0 W/m 39,7 km/h (6 Bft)
12.01.2015 21:14 9,0 C 7,8 C 85 % 1012,6 hPa 0,0 l/m 0 min 0 min 0 W/m 50,2 km/h (7 Bft)
12.01.2015 21:16 9,0 C 7,8 C 85 % 1012,5 hPa 0,0 l/m 0 min 0 min 0 W/m 50,2 km/h (7 Bft)
12.01.2015 21:18 9,0 C 7,8 C 85 % 1012,5 hPa 0,0 l/m 0 min 0 min 0 W/m 39,7 km/h (6 Bft)
12.01.2015 21:20 9,1 C 7,8 C 85 % 1012,4 hPa 0,0 l/m 0 min 0 min 0 W/m 25,1 km/h (4 Bft)
12.01.2015 21:22 9,1 C 7,8 C 85 % 1012,5 hPa 0,0 l/m 0 min 0 min 0 W/m 31,4 km/h (5 Bft)
12.01.2015 21:24 9,1 C 7,8 C 85 % 1012,4 hPa 0,0 l/m 0 min 0 min 0 W/m 48,1 km/h (6 Bft)
12.01.2015 21:26 9,1 C 7,8 C 85 % 1012,5 hPa 0,0 l/m 0 min 0 min 0 W/m 58,6 km/h (7 Bft)
12.01.2015 21:28 9,1 C 7,8 C 85 % 1012,4 hPa 0,0 l/m 0 min 0 min 0 W/m 37,7 km/h (5 Bft)
12.01.2015 21:30 9,1 C 7,8 C 85 % 1012,4 hPa 0,0 l/m 0 min 0 min 0 W/m 39,7 km/h (6 Bft)
12.01.2015 21:32 9,2 C 7,8 C 85 % 1012,4 hPa 0,0 l/m 0 min 0 min 0 W/m 41,8 km/h (6 Bft)
12.01.2015 21:34 9,2 C 7,8 C 85 % 1012,5 hPa 0,0 l/m 0 min 0 min 0 W/m 66,9 km/h (8 Bft)
12.01.2015 21:36 9,2 C 7,8 C 85 % 1012,5 hPa 0,0 l/m 0 min 0 min 0 W/m 46,0 km/h (6 Bft)
12.01.2015 21:38 9,2 C 7,8 C 85 % 1012,4 hPa 0,0 l/m 0 min 0 min 0 W/m 41,8 km/h (6 Bft)
12.01.2015 21:40 9,2 C 7,8 C 85 % 1012,4 hPa 0,0 l/m 0 min 0 min 0 W/m 33,5 km/h (5 Bft)
12.01.2015 21:42 9,2 C 7,8 C 86 % 1012,5 hPa 0,0 l/m 0 min 0 min 0 W/m 31,4 km/h (5 Bft)
12.01.2015 21:44 9,2 C 7,2 C 86 % 1012,4 hPa 0,0 l/m 0 min 0 min 0 W/m 41,8 km/h (6 Bft)
12.01.2015 21:46 9,2 C 7,2 C 87 % 1012,2 hPa 0,0 l/m 0 min 0 min 0 W/m 46,0 km/h (6 Bft)
12.01.2015 21:48 9,2 C 7,2 C 87 % 1012,4 hPa 0,0 l/m 0 min 0 min 0 W/m 50,2 km/h (7 Bft)
12.01.2015 21:50 9,2 C 7,2 C 87 % 1012,2 hPa 0,0 l/m 0 min 0 min 0 W/m 43,9 km/h (6 Bft)
12.01.2015 21:52 9,1 C 7,2 C 87 % 1012,2 hPa 0,0 l/m 0 min 0 min 0 W/m 46,0 km/h (6 Bft)
12.01.2015 21:54 9,1 C 7,2 C 88 % 1012,3 hPa 0,0 l/m 0 min 0 min 0 W/m 46,0 km/h (6 Bft)
12.01.2015 21:56 9,1 C 7,8 C 88 % 1012,3 hPa 0,0 l/m 0 min 0 min 0 W/m 35,6 km/h (5 Bft)
12.01.2015 21:58 9,1 C 7,8 C 88 % 1012,2 hPa 0,0 l/m 0 min 0 min 0 W/m 29,3 km/h (5 Bft)
12.01.2015 22:00 9,1 C 7,8 C 88 % 1012,2 hPa 0,0 l/m 0 min 0 min 0 W/m 37,7 km/h (5 Bft)
12.01.2015 22:02 9,1 C 7,8 C 88 % 1012,1 hPa 0,0 l/m 0 min 0 min 0 W/m 41,8 km/h (6 Bft)
12.01.2015 22:04 9,1 C 7,8 C 88 % 1012,2 hPa 0,0 l/m 0 min 0 min 0 W/m 41,8 km/h (6 Bft)
12.01.2015 22:06 9,1 C 7,8 C 88 % 1012,2 hPa 0,0 l/m 0 min 0 min 0 W/m 43,9 km/h (6 Bft)
12.01.2015 22:08 9,2 C 7,8 C 88 % 1012,2 hPa 0,0 l/m 0 min 0 min 0 W/m 39,7 km/h (6 Bft)
12.01.2015 22:10 9,2 C 7,8 C 88 % 1012,1 hPa 0,0 l/m 0 min 0 min 0 W/m 39,7 km/h (6 Bft)
12.01.2015 22:12 9,2 C 7,8 C 87 % 1012,1 hPa 0,0 l/m 0 min 0 min 0 W/m 39,7 km/h (6 Bft)
12.01.2015 22:14 9,2 C 7,8 C 87 % 1012,0 hPa 0,0 l/m 0 min 0 min 0 W/m 29,3 km/h (5 Bft)
12.01.2015 22:16 9,2 C 7,8 C 87 % 1012,1 hPa 0,0 l/m 0 min 0 min 0 W/m 25,1 km/h (4 Bft)
12.01.2015 22:18 9,2 C 7,8 C 87 % 1012,2 hPa 0,0 l/m 0 min 0 min 0 W/m 35,6 km/h (5 Bft)
12.01.2015 22:20 9,3 C 7,8 C 87 % 1012,1 hPa 0,0 l/m 0 min 0 min 0 W/m 35,6 km/h (5 Bft)
12.01.2015 22:22 9,3 C 7,8 C 87 % 1012,1 hPa 0,0 l/m 0 min 0 min 0 W/m 43,9 km/h (6 Bft)
12.01.2015 22:24 9,3 C 7,8 C 87 % 1012,1 hPa 0,0 l/m 0 min 0 min 0 W/m 33,5 km/h (5 Bft)
12.01.2015 22:26 9,3 C 7,8 C 86 % 1012,1 hPa 0,0 l/m 0 min 0 min 0 W/m 31,4 km/h (5 Bft)
12.01.2015 22:28 9,4 C 7,8 C 86 % 1012,1 hPa 0,0 l/m 0 min 0 min 0 W/m 48,1 km/h (6 Bft)
12.01.2015 22:30 9,4 C 7,8 C 86 % 1012,3 hPa 0,0 l/m 0 min 0 min 0 W/m 54,4 km/h (7 Bft)
12.01.2015 22:32 9,4 C 7,8 C 86 % 1012,1 hPa 0,0 l/m 0 min 0 min 0 W/m 43,9 km/h (6 Bft)
12.01.2015 22:34 9,4 C 8,3 C 85 % 1012,1 hPa 0,0 l/m 0 min 0 min 0 W/m 39,7 km/h (6 Bft)
12.01.2015 22:36 9,5 C 8,3 C 85 % 1012,0 hPa 0,0 l/m 0 min 0 min 0 W/m 37,7 km/h (5 Bft)
12.01.2015 22:38 9,5 C 8,3 C 85 % 1012,1 hPa 0,0 l/m 0 min 0 min 0 W/m 35,6 km/h (5 Bft)
12.01.2015 22:40 9,5 C 7,8 C 85 % 1012,0 hPa 0,0 l/m 0 min 0 min 0 W/m 23,0 km/h (4 Bft)
12.01.2015 22:42 9,5 C 7,8 C 85 % 1012,0 hPa 0,0 l/m 0 min 0 min 0 W/m 43,9 km/h (6 Bft)
12.01.2015 22:44 9,5 C 8,3 C 85 % 1012,0 hPa 0,0 l/m 0 min 0 min 0 W/m 46,0 km/h (6 Bft)
12.01.2015 22:46 9,6 C 8,3 C 85 % 1012,0 hPa 0,0 l/m 0 min 0 min 0 W/m 35,6 km/h (5 Bft)
12.01.2015 22:48 9,6 C 7,8 C 84 % 1012,0 hPa 0,0 l/m 0 min 0 min 0 W/m 37,7 km/h (5 Bft)
12.01.2015 22:50 9,6 C 7,8 C 84 % 1011,9 hPa 0,0 l/m 0 min 0 min 0 W/m 37,7 km/h (5 Bft)
12.01.2015 22:52 9,6 C 8,3 C 85 % 1011,9 hPa 0,0 l/m 0 min 0 min 0 W/m 46,0 km/h (6 Bft)
12.01.2015 22:54 9,6 C 8,3 C 84 % 1011,9 hPa 0,0 l/m 0 min 0 min 0 W/m 43,9 km/h (6 Bft)
12.01.2015 22:56 9,6 C 8,3 C 84 % 1011,8 hPa 0,0 l/m 0 min 0 min 0 W/m 29,3 km/h (5 Bft)
12.01.2015 22:58 9,6 C 7,8 C 84 % 1011,7 hPa 0,0 l/m 0 min 0 min 0 W/m 39,7 km/h (6 Bft)
12.01.2015 23:00 9,6 C 7,8 C 84 % 1011,8 hPa 0,0 l/m 0 min 0 min 0 W/m 23,0 km/h (4 Bft)
12.01.2015 23:02 9,6 C 7,8 C 84 % 1011,6 hPa 0,0 l/m 0 min 0 min 0 W/m 48,1 km/h (6 Bft)
12.01.2015 23:04 9,6 C 7,8 C 84 % 1011,6 hPa 0,0 l/m 0 min 0 min 0 W/m 41,8 km/h (6 Bft)
12.01.2015 23:06 9,6 C 7,8 C 84 % 1011,7 hPa 0,0 l/m 0 min 0 min 0 W/m 39,7 km/h (6 Bft)
12.01.2015 23:08 9,5 C 7,8 C 84 % 1011,6 hPa 0,0 l/m 0 min 0 min 0 W/m 43,9 km/h (6 Bft)
12.01.2015 23:10 9,5 C 7,8 C 84 % 1011,6 hPa 0,0 l/m 0 min 0 min 0 W/m 37,7 km/h (5 Bft)
12.01.2015 23:12 9,5 C 7,8 C 84 % 1011,5 hPa 0,0 l/m 0 min 0 min 0 W/m 23,0 km/h (4 Bft)
12.01.2015 23:14 9,5 C 7,8 C 84 % 1011,4 hPa 0,0 l/m 0 min 0 min 0 W/m 43,9 km/h (6 Bft)
12.01.2015 23:16 9,4 C 7,8 C 84 % 1011,5 hPa 0,0 l/m 0 min 0 min 0 W/m 37,7 km/h (5 Bft)
12.01.2015 23:18 9,4 C 7,8 C 84 % 1011,9 hPa 0,0 l/m 0 min 0 min 0 W/m 52,3 km/h (7 Bft)
12.01.2015 23:20 9,4 C 7,8 C 84 % 1011,6 hPa 0,0 l/m 0 min 0 min 0 W/m 35,6 km/h (5 Bft)
12.01.2015 23:22 9,4 C 7,8 C 84 % 1011,4 hPa 0,0 l/m 0 min 0 min 0 W/m 33,5 km/h (5 Bft)
12.01.2015 23:24 9,4 C 7,8 C 84 % 1011,6 hPa 0,0 l/m 0 min 0 min 0 W/m 41,8 km/h (6 Bft)
12.01.2015 23:26 9,4 C 7,8 C 84 % 1011,7 hPa 0,0 l/m 0 min 0 min 0 W/m 39,7 km/h (6 Bft)
12.01.2015 23:28 9,4 C 7,8 C 84 % 1011,5 hPa 0,0 l/m 0 min 0 min 0 W/m 48,1 km/h (6 Bft)
12.01.2015 23:30 9,4 C 7,8 C 84 % 1011,4 hPa 0,0 l/m 0 min 0 min 0 W/m 37,7 km/h (5 Bft)
12.01.2015 23:32 9,4 C 7,8 C 84 % 1011,5 hPa 0,0 l/m 0 min 0 min 0 W/m 31,4 km/h (5 Bft)
12.01.2015 23:34 9,4 C 7,8 C 84 % 1011,5 hPa 0,0 l/m 0 min 0 min 0 W/m 43,9 km/h (6 Bft)
12.01.2015 23:36 9,4 C 7,8 C 84 % 1011,4 hPa 0,0 l/m 0 min 0 min 0 W/m 43,9 km/h (6 Bft)
12.01.2015 23:38 9,4 C 7,8 C 84 % 1011,4 hPa 0,0 l/m 0 min 0 min 0 W/m 37,7 km/h (5 Bft)
12.01.2015 23:40 9,4 C 7,8 C 84 % 1011,5 hPa 0,0 l/m 0 min 0 min 0 W/m 43,9 km/h (6 Bft)
12.01.2015 23:42 9,4 C 7,8 C 84 % 1011,5 hPa 0,0 l/m 0 min 0 min 0 W/m 41,8 km/h (6 Bft)
12.01.2015 23:44 9,4 C 7,8 C 84 % 1011,5 hPa 0,0 l/m 0 min 0 min 0 W/m 39,7 km/h (6 Bft)
12.01.2015 23:46 9,4 C 7,8 C 84 % 1011,5 hPa 0,0 l/m 0 min 0 min 0 W/m 50,2 km/h (7 Bft)
12.01.2015 23:48 9,4 C 8,3 C 84 % 1011,4 hPa 0,0 l/m 0 min 0 min 0 W/m 37,7 km/h (5 Bft)
12.01.2015 23:50 9,5 C 8,3 C 84 % 1011,4 hPa 0,0 l/m 0 min 0 min 0 W/m 43,9 km/h (6 Bft)
12.01.2015 23:52 9,5 C 8,3 C 84 % 1011,2 hPa 0,0 l/m 0 min 0 min 0 W/m 33,5 km/h (5 Bft)
12.01.2015 23:54 9,5 C 7,8 C 84 % 1011,3 hPa 0,0 l/m 0 min 0 min 0 W/m 37,7 km/h (5 Bft)
12.01.2015 23:56 9,5 C 7,8 C 84 % 1011,3 hPa 0,0 l/m 0 min 0 min 0 W/m 35,6 km/h (5 Bft)
12.01.2015 23:58 9,5 C 7,8 C 84 % 1011,2 hPa 0,0 l/m 0 min 0 min 0 W/m 39,7 km/h (6 Bft)
_ Min-Zeit 00:00 00:00 10:46 23:52 - - - - 03:00
Minimum _ 6,3 C 4,4 C 79 % 1011,2 hPa - - - - 18,8 km/h (3 Bft)
_ Max-Zeit 22:46 22:34 05:18 00:06 00:00 00:00 02:50 11:34 21:34
Maximum _ 9,6 C 8,3 C 89 % 1021,1 hPa 0,0 l/m 0 min 2 min 63 W/m 66,9 km/h
S-SW (8 Bft)
Durchschnitt _ 7,9 C 6,5 C 84 % 1015,8 hPa #0,0 l/m #0 min. #18 min. 30 W/m 37,8 km/h (5 Bft)
© 2015 W. Hausmann